Observation data for McAdoo on 05/22/2020      Previous  Date       Current Mesonet Observations  Soil Data  Daily Summary Page  Observations in Plain Language
KMC6 220500Z 15013KT 23/17 A2981 RMK A01 T02320174  RH  070%=      5-min Rain = 0
KMC6 220501Z 15015KT 23/17 A2981 RMK A01 T02320174  RH  070%=      5-min Rain = 0
KMC6 220502Z 15016KT 23/17 A2981 RMK A01 T02320174  RH  070%=      5-min Rain = 0
KMC6 220503Z 15016KT 23/17 A2981 RMK A01 T02320174  RH  070%=      5-min Rain = 0
KMC6 220504Z 15015KT 23/17 A2981 RMK A01 T02320174  RH  070%=      5-min Rain = 0
KMC6 220505Z 15013KT 23/18 A2981 RMK A01 T02320175  RH  070%=      5-min Rain = 0
KMC6 220506Z 15013KT 23/18 A2981 RMK A01 T02310175  RH  071%=      5-min Rain = 0
KMC6 220507Z 15013KT 23/18 A2981 RMK A01 T02310175  RH  071%=      5-min Rain = 0
KMC6 220508Z 16013KT 23/18 A2981 RMK A01 T02310175  RH  071%=      5-min Rain = 0
KMC6 220509Z 15011KT 23/18 A2981 RMK A01 T02300175  RH  071%=      5-min Rain = 0
KMC6 220510Z 15012KT 23/18 A2981 RMK A01 T02290175  RH  071%=      5-min Rain = 0
KMC6 220511Z 15014KT 23/18 A2981 RMK A01 T02290175  RH  072%=      5-min Rain = 0
KMC6 220512Z 15014G19KT 23/18 A2981 RMK A01 T02280176  RH  072%=      5-min Rain = 0
KMC6 220513Z 15016KT 23/18 A2981 RMK A01 T02280176  RH  072%=      5-min Rain = 0
KMC6 220514Z 15016KT 23/18 A2981 RMK A01 T02290176  RH  072%=      5-min Rain = 0
KMC6 220515Z 15016KT 23/18 A2981 RMK A01 T02300177  RH  072%=      5-min Rain = 0
KMC6 220516Z 15015KT 23/18 A2981 RMK A01 T02300177  RH  072%=      5-min Rain = 0
KMC6 220517Z 15013KT 23/18 A2981 RMK A01 T02300177  RH  072%=      5-min Rain = 0
KMC6 220518Z 15014G19KT 23/18 A2981 RMK A01 T02300176  RH  072%=      5-min Rain = 0
KMC6 220519Z 15016KT 23/18 A2981 RMK A01 T02290177  RH  072%=      5-min Rain = 0
KMC6 220520Z 15014KT 23/18 A2981 RMK A01 T02290177  RH  072%=      5-min Rain = 0
KMC6 220521Z 15015KT 23/18 A2981 RMK A01 T02290177  RH  073%=      5-min Rain = 0
KMC6 220522Z 15014KT 23/18 A2981 RMK A01 T02290177  RH  073%=      5-min Rain = 0
KMC6 220523Z 15015KT 23/18 A2981 RMK A01 T02280177  RH  073%=      5-min Rain = 0
KMC6 220524Z 15015KT 23/18 A2981 RMK A01 T02280177  RH  073%=      5-min Rain = 0
KMC6 220525Z 15015KT 23/18 A2981 RMK A01 T02280178  RH  073%=      5-min Rain = 0
KMC6 220526Z 15014KT 23/18 A2981 RMK A01 T02280178  RH  074%=      5-min Rain = 0
KMC6 220527Z 16012KT 23/18 A2981 RMK A01 T02280178  RH  073%=      5-min Rain = 0
KMC6 220528Z 16012KT 23/18 A2981 RMK A01 T02280178  RH  073%=      5-min Rain = 0
KMC6 220529Z 16010KT 23/18 A2981 RMK A01 T02280178  RH  073%=      5-min Rain = 0
KMC6 220530Z 16011KT 23/18 A2981 RMK A01 T02270177  RH  073%=      5-min Rain = 0
KMC6 220531Z 16011G17KT 23/18 A2981 RMK A01 T02260177  RH  074%=      5-min Rain = 0
KMC6 220532Z 16014KT 23/18 A2981 RMK A01 T02260178  RH  074%=      5-min Rain = 0
KMC6 220533Z 15013G19KT 23/18 A2981 RMK A01 T02260178  RH  074%=      5-min Rain = 0
KMC6 220534Z 15016KT 23/18 A2981 RMK A01 T02270178  RH  074%=      5-min Rain = 0
KMC6 220535Z 16015KT 23/18 A2982 RMK A01 T02280179  RH  074%=      5-min Rain = 0
KMC6 220536Z 16014KT 23/18 A2982 RMK A01 T02280179  RH  074%=      5-min Rain = 0
KMC6 220537Z 15015KT 23/18 A2982 RMK A01 T02280179  RH  074%=      5-min Rain = 0
KMC6 220538Z 15013KT 23/18 A2982 RMK A01 T02280179  RH  074%=      5-min Rain = 0
KMC6 220539Z 15014KT 23/18 A2982 RMK A01 T02280179  RH  074%=      5-min Rain = 0
KMC6 220540Z 15014KT 23/18 A2981 RMK A01 T02280179  RH  074%=      5-min Rain = 0
KMC6 220541Z 15014KT 23/18 A2981 RMK A01 T02280179  RH  074%=      5-min Rain = 0
KMC6 220542Z 15013KT 23/18 A2981 RMK A01 T02280179  RH  074%=      5-min Rain = 0
KMC6 220543Z 15015KT 23/18 A2981 RMK A01 T02280179  RH  074%=      5-min Rain = 0
KMC6 220544Z 15016KT 23/18 A2981 RMK A01 T02280179  RH  074%=      5-min Rain = 0
KMC6 220545Z 15015KT 23/18 A2981 RMK A01 T02280179  RH  074%=      5-min Rain = 0
KMC6 220546Z 15015KT 23/18 A2981 RMK A01 T02280179  RH  074%=      5-min Rain = 0
KMC6 220547Z 15016KT 23/18 A2981 RMK A01 T02280179  RH  074%=      5-min Rain = 0
KMC6 220548Z 15015G20KT 23/18 A2981 RMK A01 T02280179  RH  074%=      5-min Rain = 0
KMC6 220549Z 15015KT 23/18 A2981 RMK A01 T02270179  RH  074%=      5-min Rain = 0
KMC6 220550Z 15014KT 23/18 A2981 RMK A01 T02270179  RH  074%=      5-min Rain = 0
KMC6 220551Z 15016G21KT 23/18 A2981 RMK A01 T02260179  RH  074%=      5-min Rain = 0
KMC6 220552Z 15016KT 23/18 A2982 RMK A01 T02260179  RH  075%=      5-min Rain = 0
KMC6 220553Z 15015G20KT 23/18 A2982 RMK A01 T02260179  RH  075%=      5-min Rain = 0
KMC6 220554Z 15015KT 23/18 A2981 RMK A01 T02260179  RH  075%=      5-min Rain = 0
KMC6 220555Z 15017KT 23/18 A2981 RMK A01 T02260179  RH  075%=      5-min Rain = 0
KMC6 220556Z 15016KT 23/18 A2981 RMK A01 T02260179  RH  075%=      5-min Rain = 0
KMC6 220557Z 15017KT 23/18 A2981 RMK A01 T02260179  RH  075%=      5-min Rain = 0
KMC6 220558Z 15015KT 23/18 A2981 RMK A01 T02260179  RH  075%=      5-min Rain = 0
KMC6 220559Z 15016KT 23/18 A2981 RMK A01 T02260179  RH  075%=      5-min Rain = 0
KMC6 220600Z 15016KT 23/18 A2981 RMK A01 T02250179  RH  075%=      5-min Rain = 0
KMC6 220601Z 15015KT 23/18 A2982 RMK A01 T02250179  RH  075%=      5-min Rain = 0
KMC6 220602Z 15014KT 23/18 A2982 RMK A01 T02250179  RH  075%=      5-min Rain = 0
KMC6 220603Z 16013KT 23/18 A2982 RMK A01 T02250179  RH  075%=      5-min Rain = 0
KMC6 220604Z 15013KT 23/18 A2982 RMK A01 T02250179  RH  075%=      5-min Rain = 0
KMC6 220605Z 15012G17KT 23/18 A2982 RMK A01 T02250179  RH  075%=      5-min Rain = 0
KMC6 220606Z 15013KT 23/18 A2982 RMK A01 T02250179  RH  075%=      5-min Rain = 0
KMC6 220607Z 15014KT 22/18 A2981 RMK A01 T02240179  RH  075%=      5-min Rain = 0
KMC6 220608Z 15014KT 22/18 A2982 RMK A01 T02240179  RH  076%=      5-min Rain = 0
KMC6 220609Z 16014KT 22/18 A2981 RMK A01 T02230179  RH  076%=      5-min Rain = 0
KMC6 220610Z 15015KT 22/18 A2981 RMK A01 T02230179  RH  076%=      5-min Rain = 0
KMC6 220611Z 15013KT 22/18 A2981 RMK A01 T02230179  RH  076%=      5-min Rain = 0
KMC6 220612Z 15013KT 22/18 A2981 RMK A01 T02240179  RH  076%=      5-min Rain = 0
KMC6 220613Z 15014KT 22/18 A2981 RMK A01 T02230179  RH  076%=      5-min Rain = 0
KMC6 220614Z 14014KT 22/18 A2981 RMK A01 T02230179  RH  076%=      5-min Rain = 0
KMC6 220615Z 15015G20KT 22/18 A2981 RMK A01 T02230179  RH  076%=      5-min Rain = 0
KMC6 220616Z 15015KT 22/18 A2981 RMK A01 T02230179  RH  076%=      5-min Rain = 0
KMC6 220617Z 15013KT 22/18 A2981 RMK A01 T02240179  RH  076%=      5-min Rain = 0
KMC6 220618Z 15012KT 22/18 A2981 RMK A01 T02240178  RH  075%=      5-min Rain = 0
KMC6 220619Z 15012G17KT 22/18 A2981 RMK A01 T02230178  RH  076%=      5-min Rain = 0
KMC6 220620Z 15014KT 22/18 A2981 RMK A01 T02220178  RH  076%=      5-min Rain = 0
KMC6 220621Z 15013G18KT 22/18 A2981 RMK A01 T02220179  RH  076%=      5-min Rain = 0
KMC6 220622Z 15013KT 22/18 A2981 RMK A01 T02220179  RH  076%=      5-min Rain = 0
KMC6 220623Z 15015KT 22/18 A2981 RMK A01 T02220179  RH  076%=      5-min Rain = 0
KMC6 220624Z 15014KT 22/18 A2981 RMK A01 T02220179  RH  076%=      5-min Rain = 0
KMC6 220625Z 15013G19KT 22/18 A2981 RMK A01 T02220178  RH  076%=      5-min Rain = 0
KMC6 220626Z 15015KT 22/18 A2981 RMK A01 T02220179  RH  076%=      5-min Rain = 0
KMC6 220627Z 16013KT 22/18 A2981 RMK A01 T02220179  RH  076%=      5-min Rain = 0
KMC6 220628Z 16015KT 22/18 A2981 RMK A01 T02220179  RH  076%=      5-min Rain = 0
KMC6 220629Z 17013KT 22/18 A2981 RMK A01 T02220179  RH  076%=      5-min Rain = 0
KMC6 220630Z 17012KT 22/18 A2981 RMK A01 T02230179  RH  076%=      5-min Rain = 0
KMC6 220631Z 17011KT 22/18 A2981 RMK A01 T02230179  RH  076%=      5-min Rain = 0
KMC6 220632Z 16011KT 22/18 A2981 RMK A01 T02220178  RH  076%=      5-min Rain = 0
KMC6 220633Z 16012KT 22/18 A2981 RMK A01 T02210178  RH  077%=      5-min Rain = 0
KMC6 220634Z 16013KT 22/18 A2981 RMK A01 T02210179  RH  077%=      5-min Rain = 0
KMC6 220635Z 16015KT 22/18 A2981 RMK A01 T02210179  RH  077%=      5-min Rain = 0
KMC6 220636Z 16015KT 22/18 A2981 RMK A01 T02210179  RH  077%=      5-min Rain = 0
KMC6 220637Z 16014G19KT 22/18 A2981 RMK A01 T02210179  RH  077%=      5-min Rain = 0
KMC6 220638Z 16015KT 22/18 A2981 RMK A01 T02210179  RH  077%=      5-min Rain = 0
KMC6 220639Z 16013KT 22/18 A2981 RMK A01 T02200179  RH  077%=      5-min Rain = 0
KMC6 220640Z 16015KT 22/18 A2981 RMK A01 T02200179  RH  077%=      5-min Rain = 0
KMC6 220641Z 16014KT 22/18 A2981 RMK A01 T02200179  RH  078%=      5-min Rain = 0
KMC6 220642Z 16014KT 22/18 A2981 RMK A01 T02200179  RH  078%=      5-min Rain = 0
KMC6 220643Z 16013KT 22/18 A2981 RMK A01 T02200179  RH  077%=      5-min Rain = 0
KMC6 220644Z 16015KT 22/18 A2981 RMK A01 T02190179  RH  078%=      5-min Rain = 0
KMC6 220645Z 16014KT 22/18 A298 RMK A01 T02190179  RH  078%=      5-min Rain = 0
KMC6 220646Z 16014KT 22/18 A298 RMK A01 T02190179  RH  078%=      5-min Rain = 0
KMC6 220647Z 16013KT 22/18 A2981 RMK A01 T02190178  RH  078%=      5-min Rain = 0
KMC6 220648Z 16013KT 22/18 A2981 RMK A01 T02190178  RH  078%=      5-min Rain = 0
KMC6 220649Z 16014KT 22/18 A298 RMK A01 T02190178  RH  078%=      5-min Rain = 0
KMC6 220650Z 16014KT 22/18 A298 RMK A01 T02180178  RH  078%=      5-min Rain = 0
KMC6 220651Z 16013KT 22/18 A298 RMK A01 T02180178  RH  078%=      5-min Rain = 0
KMC6 220652Z 16013KT 22/18 A298 RMK A01 T02180178  RH  078%=      5-min Rain = 0
KMC6 220653Z 16013KT 22/18 A298 RMK A01 T02170178  RH  078%=      5-min Rain = 0
KMC6 220654Z 16012KT 22/18 A298 RMK A01 T02170178  RH  078%=      5-min Rain = 0
KMC6 220655Z 16012KT 22/18 A298 RMK A01 T02170178  RH  078%=      5-min Rain = 0
KMC6 220656Z 16013KT 22/18 A298 RMK A01 T02160178  RH  079%=      5-min Rain = 0
KMC6 220657Z 16012KT 22/18 A298 RMK A01 T02160177  RH  079%=      5-min Rain = 0
KMC6 220658Z 16012KT 22/18 A298 RMK A01 T02150177  RH  079%=      5-min Rain = 0
KMC6 220659Z 16013KT 22/18 A298 RMK A01 T02150177  RH  079%=      5-min Rain = 0
KMC6 220700Z 16012KT 22/18 A298 RMK A01 T02150177  RH  079%=      5-min Rain = 0
KMC6 220701Z 16011KT 21/18 A298 RMK A01 T02140177  RH  079%=      5-min Rain = 0
KMC6 220702Z 16013KT 21/18 A298 RMK A01 T02140177  RH  079%=      5-min Rain = 0
KMC6 220703Z 16012KT 21/18 A298 RMK A01 T02140177  RH  079%=      5-min Rain = 0
KMC6 220704Z 16012G17KT 21/18 A298 RMK A01 T02140177  RH  079%=      5-min Rain = 0
KMC6 220705Z 16013KT 21/18 A298 RMK A01 T02140177  RH  080%=      5-min Rain = 0
KMC6 220706Z 16013KT 21/18 A298 RMK A01 T02130177  RH  080%=      5-min Rain = 0
KMC6 220707Z 16014KT 21/18 A298 RMK A01 T02130177  RH  080%=      5-min Rain = 0
KMC6 220708Z 16013KT 21/18 A2979 RMK A01 T02130177  RH  080%=      5-min Rain = 0
KMC6 220709Z 16014KT 21/18 A2979 RMK A01 T02130177  RH  080%=      5-min Rain = 0
KMC6 220710Z 16013KT 21/18 A2979 RMK A01 T02130176  RH  080%=      5-min Rain = 0
KMC6 220711Z 16013KT 21/18 A2979 RMK A01 T02130176  RH  080%=      5-min Rain = 0
KMC6 220712Z 16013KT 21/18 A2979 RMK A01 T02130176  RH  079%=      5-min Rain = 0
KMC6 220713Z 16014KT 21/18 A2979 RMK A01 T02140175  RH  079%=      5-min Rain = 0
KMC6 220714Z 17013KT 21/18 A2979 RMK A01 T02140175  RH  078%=      5-min Rain = 0
KMC6 220715Z 16013KT 21/18 A2979 RMK A01 T02140175  RH  078%=      5-min Rain = 0
KMC6 220716Z 17013KT 21/17 A2979 RMK A01 T02140174  RH  078%=      5-min Rain = 0
KMC6 220717Z 17013KT 21/17 A2979 RMK A01 T02130174  RH  078%=      5-min Rain = 0
KMC6 220718Z 17013KT 21/17 A2979 RMK A01 T02130173  RH  078%=      5-min Rain = 0
KMC6 220719Z 17014KT 21/17 A2979 RMK A01 T02140173  RH  077%=      5-min Rain = 0
KMC6 220720Z 17013KT 21/17 A2979 RMK A01 T02140173  RH  077%=      5-min Rain = 0
KMC6 220721Z 17014KT 21/17 A2979 RMK A01 T02140173  RH  077%=      5-min Rain = 0
KMC6 220722Z 17013KT 22/17 A2979 RMK A01 T02150172  RH  077%=      5-min Rain = 0
KMC6 220723Z 17013KT 21/17 A2979 RMK A01 T02140172  RH  077%=      5-min Rain = 0
KMC6 220724Z 17015KT 21/17 A2979 RMK A01 T02140171  RH  077%=      5-min Rain = 0
KMC6 220725Z 17014KT 21/17 A2979 RMK A01 T02140171  RH  076%=      5-min Rain = 0
KMC6 220726Z 17014KT 21/17 A2979 RMK A01 T02140170  RH  076%=      5-min Rain = 0
KMC6 220727Z 17012KT 21/17 A2979 RMK A01 T02140170  RH  076%=      5-min Rain = 0
KMC6 220728Z 18012KT 21/17 A2979 RMK A01 T02130170  RH  076%=      5-min Rain = 0
KMC6 220729Z 18012KT 21/17 A2979 RMK A01 T02130170  RH  076%=      5-min Rain = 0
KMC6 220730Z 18015KT 21/17 A2979 RMK A01 T02130169  RH  076%=      5-min Rain = 0
KMC6 220731Z 17013KT 21/17 A2979 RMK A01 T02130169  RH  076%=      5-min Rain = 0
KMC6 220732Z 18013G18KT 21/17 A2979 RMK A01 T02140169  RH  076%=      5-min Rain = 0
KMC6 220733Z 18012KT 21/17 A2979 RMK A01 T02140169  RH  075%=      5-min Rain = 0
KMC6 220734Z 18012KT 21/17 A2979 RMK A01 T02130168  RH  076%=      5-min Rain = 0
KMC6 220735Z 18011KT 21/17 A2979 RMK A01 T02120168  RH  076%=      5-min Rain = 0
KMC6 220736Z 18011KT 21/17 A2979 RMK A01 T02120168  RH  076%=      5-min Rain = 0
KMC6 220737Z 18012KT 21/17 A2979 RMK A01 T02110167  RH  076%=      5-min Rain = 0
KMC6 220738Z 18013KT 21/17 A2979 RMK A01 T02110167  RH  076%=      5-min Rain = 0
KMC6 220739Z 18014KT 21/17 A2979 RMK A01 T02110167  RH  076%=      5-min Rain = 0
KMC6 220740Z 18013KT 21/17 A2979 RMK A01 T02110167  RH  076%=      5-min Rain = 0
KMC6 220741Z 18013KT 21/17 A2979 RMK A01 T02110167  RH  076%=      5-min Rain = 0
KMC6 220742Z 18014KT 21/17 A2979 RMK A01 T02110167  RH  076%=      5-min Rain = 0
KMC6 220743Z 18013KT 21/17 A2979 RMK A01 T02110167  RH  076%=      5-min Rain = 0
KMC6 220744Z 18013KT 21/17 A2979 RMK A01 T02110166  RH  076%=      5-min Rain = 0
KMC6 220745Z 18013KT 21/17 A2979 RMK A01 T02100166  RH  076%=      5-min Rain = 0
KMC6 220746Z 17013KT 21/17 A2979 RMK A01 T02100166  RH  076%=      5-min Rain = 0
KMC6 220747Z 18012KT 21/17 A2979 RMK A01 T02090166  RH  076%=      5-min Rain = 0
KMC6 220748Z 18013G18KT 21/17 A2979 RMK A01 T02090166  RH  076%=      5-min Rain = 0
KMC6 220749Z 18013KT 21/17 A2979 RMK A01 T02090166  RH  076%=      5-min Rain = 0
KMC6 220750Z 18013KT 21/17 A2979 RMK A01 T02090166  RH  076%=      5-min Rain = 0
KMC6 220751Z 18012KT 21/17 A2979 RMK A01 T02080166  RH  077%=      5-min Rain = 0
KMC6 220752Z 18013KT 21/17 A2979 RMK A01 T02080165  RH  077%=      5-min Rain = 0
KMC6 220753Z 18012KT 21/17 A2979 RMK A01 T02070165  RH  077%=      5-min Rain = 0
KMC6 220754Z 18012KT 21/17 A2979 RMK A01 T02070165  RH  077%=      5-min Rain = 0
KMC6 220755Z 18012KT 21/16 A2979 RMK A01 T02060164  RH  077%=      5-min Rain = 0
KMC6 220756Z 18012KT 21/16 A2979 RMK A01 T02060164  RH  077%=      5-min Rain = 0
KMC6 220757Z 18012KT 21/16 A2979 RMK A01 T02050164  RH  077%=      5-min Rain = 0
KMC6 220758Z 18011KT 21/16 A2979 RMK A01 T02050164  RH  077%=      5-min Rain = 0
KMC6 220759Z 18012KT 21/16 A2979 RMK A01 T02050163  RH  077%=      5-min Rain = 0
KMC6 220800Z 18012KT 21/16 A2979 RMK A01 T02050163  RH  077%=      5-min Rain = 0
KMC6 220801Z 18012KT 21/16 A2979 RMK A01 T02050163  RH  077%=      5-min Rain = 0
KMC6 220802Z 18011KT 20/16 A2979 RMK A01 T02040163  RH  077%=      5-min Rain = 0
KMC6 220803Z 18011KT 20/16 A2979 RMK A01 T02040163  RH  077%=      5-min Rain = 0
KMC6 220804Z 18011KT 20/16 A2979 RMK A01 T02040162  RH  077%=      5-min Rain = 0
KMC6 220805Z 18012KT 20/16 A2979 RMK A01 T02030162  RH  077%=      5-min Rain = 0
KMC6 220806Z 19011KT 20/16 A2979 RMK A01 T02030162  RH  077%=      5-min Rain = 0
KMC6 220807Z 19011KT 20/16 A2979 RMK A01 T02020162  RH  077%=      5-min Rain = 0
KMC6 220808Z 19010KT 20/16 A2979 RMK A01 T02020161  RH  078%=      5-min Rain = 0
KMC6 220809Z 19010KT 20/16 A2979 RMK A01 T02010161  RH  078%=      5-min Rain = 0
KMC6 220810Z 19010KT 20/16 A2979 RMK A01 T02010161  RH  078%=      5-min Rain = 0
KMC6 220811Z 19011KT 20/16 A2979 RMK A01 T02000161  RH  078%=      5-min Rain = 0
KMC6 220812Z 19011KT 20/16 A2979 RMK A01 T02000161  RH  078%=      5-min Rain = 0
KMC6 220813Z 19011KT 20/16 A2979 RMK A01 T01990160  RH  078%=      5-min Rain = 0
KMC6 220814Z 19010KT 20/16 A2979 RMK A01 T01990160  RH  078%=      5-min Rain = 0
KMC6 220815Z 19010KT 20/16 A2979 RMK A01 T01980160  RH  078%=      5-min Rain = 0
KMC6 220816Z 19011KT 20/16 A2979 RMK A01 T01980160  RH  079%=      5-min Rain = 0
KMC6 220817Z 19012KT 20/16 A2979 RMK A01 T01970160  RH  079%=      5-min Rain = 0
KMC6 220818Z 19011KT 20/16 A2979 RMK A01 T01970160  RH  079%=      5-min Rain = 0
KMC6 220819Z 19011KT 20/16 A2979 RMK A01 T01970160  RH  079%=      5-min Rain = 0
KMC6 220820Z 19011KT 20/16 A2979 RMK A01 T01970160  RH  079%=      5-min Rain = 0
KMC6 220821Z 19011KT 20/16 A2979 RMK A01 T01970159  RH  079%=      5-min Rain = 0
KMC6 220822Z 19011KT 20/16 A2979 RMK A01 T01960159  RH  079%=      5-min Rain = 0
KMC6 220823Z 19011KT 20/16 A2979 RMK A01 T01960159  RH  079%=      5-min Rain = 0
KMC6 220824Z 19012KT 20/16 A2979 RMK A01 T01960159  RH  079%=      5-min Rain = 0
KMC6 220825Z 18011KT 20/16 A2979 RMK A01 T01960159  RH  079%=      5-min Rain = 0
KMC6 220826Z 19011KT 20/16 A2979 RMK A01 T01950159  RH  079%=      5-min Rain = 0
KMC6 220827Z 19011KT 19/16 A2979 RMK A01 T01940158  RH  079%=      5-min Rain = 0
KMC6 220828Z 19012KT 19/16 A2979 RMK A01 T01940158  RH  080%=      5-min Rain = 0
KMC6 220829Z 19011KT 19/16 A2979 RMK A01 T01940158  RH  080%=      5-min Rain = 0
KMC6 220830Z 19011KT 19/16 A2979 RMK A01 T01940158  RH  080%=      5-min Rain = 0
KMC6 220831Z 19011KT 19/16 A2979 RMK A01 T01930157  RH  080%=      5-min Rain = 0
KMC6 220832Z 19012KT 19/16 A2979 RMK A01 T01930157  RH  080%=      5-min Rain = 0
KMC6 220833Z 19012KT 19/16 A2979 RMK A01 T01930157  RH  080%=      5-min Rain = 0
KMC6 220834Z 19012KT 19/16 A2979 RMK A01 T01930157  RH  080%=      5-min Rain = 0
KMC6 220835Z 19013KT 19/16 A2979 RMK A01 T01930157  RH  080%=      5-min Rain = 0
KMC6 220836Z 19012KT 19/16 A2979 RMK A01 T01930156  RH  079%=      5-min Rain = 0
KMC6 220837Z 19013KT 19/16 A2979 RMK A01 T01930156  RH  079%=      5-min Rain = 0
KMC6 220838Z 19012KT 19/16 A2979 RMK A01 T01920156  RH  079%=      5-min Rain = 0
KMC6 220839Z 19011KT 19/16 A2979 RMK A01 T01920155  RH  079%=      5-min Rain = 0
KMC6 220840Z 19012KT 19/16 A2979 RMK A01 T01920155  RH  079%=      5-min Rain = 0
KMC6 220841Z 19011KT 19/16 A2979 RMK A01 T01920155  RH  079%=      5-min Rain = 0
KMC6 220842Z 19011KT 19/15 A2979 RMK A01 T01920154  RH  079%=      5-min Rain = 0
KMC6 220843Z 20010KT 19/15 A2979 RMK A01 T01910154  RH  079%=      5-min Rain = 0
KMC6 220844Z 20011KT 19/15 A2979 RMK A01 T01910153  RH  078%=      5-min Rain = 0
KMC6 220845Z 20010KT 19/15 A2979 RMK A01 T01910152  RH  078%=      5-min Rain = 0
KMC6 220846Z 20010KT 19/15 A2979 RMK A01 T01900151  RH  078%=      5-min Rain = 0
KMC6 220847Z 20011KT 19/15 A2979 RMK A01 T01900150  RH  078%=      5-min Rain = 0
KMC6 220848Z 20012KT 19/15 A2979 RMK A01 T01900149  RH  077%=      5-min Rain = 0
KMC6 220849Z 20012KT 19/15 A2979 RMK A01 T01900148  RH  077%=      5-min Rain = 0
KMC6 220850Z 20012KT 19/15 A2979 RMK A01 T01900147  RH  076%=      5-min Rain = 0
KMC6 220851Z 21013KT 19/15 A2979 RMK A01 T01900146  RH  075%=      5-min Rain = 0
KMC6 220852Z 21012KT 19/15 A2979 RMK A01 T01910145  RH  075%=      5-min Rain = 0
KMC6 220853Z 21011KT 19/15 A2979 RMK A01 T01910145  RH  075%=      5-min Rain = 0
KMC6 220854Z 21013KT 19/14 A2979 RMK A01 T01910144  RH  074%=      5-min Rain = 0
KMC6 220855Z 21012KT 19/14 A2979 RMK A01 T01900142  RH  073%=      5-min Rain = 0
KMC6 220856Z 21012KT 19/14 A2979 RMK A01 T01900141  RH  073%=      5-min Rain = 0
KMC6 220857Z 21011KT 19/14 A2979 RMK A01 T01890140  RH  073%=      5-min Rain = 0
KMC6 220858Z 21013KT 19/14 A2979 RMK A01 T01880139  RH  073%=      5-min Rain = 0
KMC6 220859Z 21014KT 19/14 A2979 RMK A01 T01880138  RH  072%=      5-min Rain = 0
KMC6 220900Z 21012KT 19/14 A2979 RMK A01 T01890138  RH  072%=      5-min Rain = 0
KMC6 220901Z 21012KT 19/14 A2979 RMK A01 T01880137  RH  072%=      5-min Rain = 0
KMC6 220902Z 21013KT 19/14 A2979 RMK A01 T01870137  RH  072%=      5-min Rain = 0
KMC6 220903Z 21012KT 19/14 A298 RMK A01 T01870136  RH  072%=      5-min Rain = 0
KMC6 220904Z 21012KT 19/13 A298 RMK A01 T01870134  RH  071%=      5-min Rain = 0
KMC6 220905Z 21012KT 19/13 A298 RMK A01 T01870134  RH  071%=      5-min Rain = 0
KMC6 220906Z 21014KT 19/13 A298 RMK A01 T01860133  RH  071%=      5-min Rain = 0
KMC6 220907Z 20014KT 19/13 A298 RMK A01 T01850131  RH  070%=      5-min Rain = 0
KMC6 220908Z 20013KT 19/13 A298 RMK A01 T01850129  RH  070%=      5-min Rain = 0
KMC6 220909Z 20013KT 19/13 A298 RMK A01 T01850127  RH  069%=      5-min Rain = 0
KMC6 220910Z 21013KT 19/12 A298 RMK A01 T01850121  RH  066%=      5-min Rain = 0
KMC6 220911Z 21013KT 19/12 A298 RMK A01 T01860118  RH  064%=      5-min Rain = 0
KMC6 220912Z 21014KT 19/11 A298 RMK A01 T01860114  RH  063%=      5-min Rain = 0
KMC6 220913Z 21013KT 19/11 A298 RMK A01 T01870110  RH  061%=      5-min Rain = 0
KMC6 220914Z 21013KT 19/11 A298 RMK A01 T01870106  RH  059%=      5-min Rain = 0
KMC6 220915Z 21013KT 19/10 A298 RMK A01 T01870104  RH  058%=      5-min Rain = 0
KMC6 220916Z 21013KT 19/10 A298 RMK A01 T01870101  RH  057%=      5-min Rain = 0
KMC6 220917Z 21013KT 19/10 A298 RMK A01 T01870101  RH  058%=      5-min Rain = 0
KMC6 220918Z 21014KT 19/10 A298 RMK A01 T01860097  RH  056%=      5-min Rain = 0
KMC6 220919Z 21014KT 19/09 A298 RMK A01 T01860090  RH  054%=      5-min Rain = 0
KMC6 220920Z 21014KT 19/09 A2981 RMK A01 T01870087  RH  052%=      5-min Rain = 0
KMC6 220921Z 22014KT 19/09 A2981 RMK A01 T01880087  RH  052%=      5-min Rain = 0
KMC6 220922Z 22014KT 19/09 A2981 RMK A01 T01880086  RH  051%=      5-min Rain = 0
KMC6 220923Z 22012KT 19/08 A2981 RMK A01 T01880084  RH  051%=      5-min Rain = 0
KMC6 220924Z 22012KT 19/09 A2981 RMK A01 T01870086  RH  052%=      5-min Rain = 0
KMC6 220925Z 22011KT 19/09 A2981 RMK A01 T01850087  RH  053%=      5-min Rain = 0
KMC6 220926Z 22012KT 18/09 A298 RMK A01 T01830085  RH  053%=      5-min Rain = 0
KMC6 220927Z 23011KT 18/08 A298 RMK A01 T01820081  RH  052%=      5-min Rain = 0
KMC6 220928Z 22011KT 18/08 A298 RMK A01 T01820076  RH  050%=      5-min Rain = 0
KMC6 220929Z 22013G18KT 18/08 A298 RMK A01 T01820075  RH  049%=      5-min Rain = 0
KMC6 220930Z 22014KT 18/07 A298 RMK A01 T01830072  RH  048%=      5-min Rain = 0
KMC6 220931Z 22013KT 18/07 A298 RMK A01 T01840070  RH  047%=      5-min Rain = 0
KMC6 220932Z 23014KT 19/07 A298 RMK A01 T01850068  RH  046%=      5-min Rain = 0
KMC6 220933Z 23014KT 19/07 A298 RMK A01 T01850066  RH  046%=      5-min Rain = 0
KMC6 220934Z 23013KT 19/06 A298 RMK A01 T01850064  RH  045%=      5-min Rain = 0
KMC6 220935Z 23013KT 19/06 A298 RMK A01 T01850061  RH  044%=      5-min Rain = 0
KMC6 220936Z 23013KT 19/06 A298 RMK A01 T01850059  RH  044%=      5-min Rain = 0
KMC6 220937Z 23012KT 18/06 A298 RMK A01 T01840058  RH  044%=      5-min Rain = 0
KMC6 220938Z 23011KT 18/06 A2981 RMK A01 T01820057  RH  044%=      5-min Rain = 0
KMC6 220939Z 23012KT 18/06 A2981 RMK A01 T01810055  RH  043%=      5-min Rain = 0
KMC6 220940Z 23012KT 18/05 A2981 RMK A01 T01810053  RH  043%=      5-min Rain = 0
KMC6 220941Z 23012KT 18/05 A2981 RMK A01 T01800052  RH  043%=      5-min Rain = 0
KMC6 220942Z 23012KT 18/05 A2981 RMK A01 T01790052  RH  043%=      5-min Rain = 0
KMC6 220943Z 22012KT 18/05 A2981 RMK A01 T01780052  RH  043%=      5-min Rain = 0
KMC6 220944Z 23012KT 18/05 A2981 RMK A01 T01770050  RH  043%=      5-min Rain = 0
KMC6 220945Z 23012KT 18/05 A2981 RMK A01 T01760049  RH  043%=      5-min Rain = 0
KMC6 220946Z 23012KT 18/05 A2981 RMK A01 T01750048  RH  043%=      5-min Rain = 0
KMC6 220947Z 22011KT 17/05 A2981 RMK A01 T01740048  RH  043%=      5-min Rain = 0
KMC6 220948Z 22012KT 17/05 A2981 RMK A01 T01730048  RH  043%=      5-min Rain = 0
KMC6 220949Z 23012KT 17/05 A2981 RMK A01 T01720047  RH  043%=      5-min Rain = 0
KMC6 220950Z 23012KT 17/05 A2981 RMK A01 T01720045  RH  043%=      5-min Rain = 0
KMC6 220951Z 23012KT 17/04 A2981 RMK A01 T01720043  RH  042%=      5-min Rain = 0
KMC6 220952Z 23012KT 17/04 A2981 RMK A01 T01720041  RH  042%=      5-min Rain = 0
KMC6 220953Z 23012KT 17/04 A2981 RMK A01 T01720039  RH  041%=      5-min Rain = 0
KMC6 220954Z 23012KT 17/04 A2981 RMK A01 T01730038  RH  041%=      5-min Rain = 0
KMC6 220955Z 23012KT 17/04 A2981 RMK A01 T01730037  RH  040%=      5-min Rain = 0
KMC6 220956Z 23012KT 17/04 A2981 RMK A01 T01730036  RH  040%=      5-min Rain = 0
KMC6 220957Z 23012KT 17/03 A2981 RMK A01 T01730034  RH  040%=      5-min Rain = 0
KMC6 220958Z 23012KT 17/03 A2981 RMK A01 T01730034  RH  039%=      5-min Rain = 0
KMC6 220959Z 23011KT 17/03 A2981 RMK A01 T01730034  RH  039%=      5-min Rain = 0
KMC6 221000Z 23011KT 17/03 A2981 RMK A01 T01720034  RH  040%=      5-min Rain = 0
KMC6 221001Z 23011KT 17/03 A2981 RMK A01 T01720032  RH  039%=      5-min Rain = 0
KMC6 221002Z 23011KT 17/03 A2982 RMK A01 T01720031  RH  039%=      5-min Rain = 0
KMC6 221003Z 23011KT 17/03 A2982 RMK A01 T01720029  RH  038%=      5-min Rain = 0
KMC6 221004Z 23011KT 17/03 A2982 RMK A01 T01720029  RH  038%=      5-min Rain = 0
KMC6 221005Z 23011KT 17/03 A2982 RMK A01 T01710029  RH  039%=      5-min Rain = 0
KMC6 221006Z 23012KT 17/03 A2982 RMK A01 T01700028  RH  039%=      5-min Rain = 0
KMC6 221007Z 23012KT 17/02 A2982 RMK A01 T01700024  RH  038%=      5-min Rain = 0
KMC6 221008Z 23012KT 17/02 A2982 RMK A01 T01720022  RH  037%=      5-min Rain = 0
KMC6 221009Z 23012KT 17/02 A2982 RMK A01 T01730020  RH  036%=      5-min Rain = 0
KMC6 221010Z 23012KT 17/02 A2982 RMK A01 T01740019  RH  035%=      5-min Rain = 0
KMC6 221011Z 23012KT 18/02 A2982 RMK A01 T01750018  RH  035%=      5-min Rain = 0
KMC6 221012Z 23011KT 18/02 A2982 RMK A01 T01750017  RH  034%=      5-min Rain = 0
KMC6 221013Z 23010KT 18/02 A2982 RMK A01 T01750017  RH  034%=      5-min Rain = 0
KMC6 221014Z 23010KT 17/02 A2982 RMK A01 T01740018  RH  035%=      5-min Rain = 0
KMC6 221015Z 23010KT 17/02 A2982 RMK A01 T01720018  RH  036%=      5-min Rain = 0
KMC6 221016Z 23011KT 17/02 A2982 RMK A01 T01700017  RH  036%=      5-min Rain = 0
KMC6 221017Z 23010KT 17/02 A2982 RMK A01 T01700015  RH  035%=      5-min Rain = 0
KMC6 221018Z 23010KT 17/01 A2982 RMK A01 T01700014  RH  035%=      5-min Rain = 0
KMC6 221019Z 23011KT 17/01 A2982 RMK A01 T01700014  RH  035%=      5-min Rain = 0
KMC6 221020Z 23012KT 17/01 A2982 RMK A01 T01710013  RH  034%=      5-min Rain = 0
KMC6 221021Z 23012KT 17/01 A2983 RMK A01 T01720011  RH  034%=      5-min Rain = 0
KMC6 221022Z 23013KT 17/01 A2983 RMK A01 T01720011  RH  034%=      5-min Rain = 0
KMC6 221023Z 23013KT 17/01 A2983 RMK A01 T01720011  RH  034%=      5-min Rain = 0
KMC6 221024Z 23013KT 17/01 A2983 RMK A01 T01720010  RH  034%=      5-min Rain = 0
KMC6 221025Z 23013KT 17/01 A2983 RMK A01 T01720010  RH  033%=      5-min Rain = 0
KMC6 221026Z 23013KT 17/01 A2983 RMK A01 T01720010  RH  033%=      5-min Rain = 0
KMC6 221027Z 23012KT 17/01 A2983 RMK A01 T01720009  RH  033%=      5-min Rain = 0
KMC6 221028Z 24012KT 17/01 A2983 RMK A01 T01720008  RH  033%=      5-min Rain = 0
KMC6 221029Z 24011KT 17/01 A2983 RMK A01 T01720005  RH  032%=      5-min Rain = 0
KMC6 221030Z 24012KT 17/00 A2983 RMK A01 T01720004  RH  032%=      5-min Rain = 0
KMC6 221031Z 24011KT 17/00 A2983 RMK A01 T01730001  RH  031%=      5-min Rain = 0
KMC6 221032Z 24010KT 17/00 A2983 RMK A01 T01740001  RH  031%=      5-min Rain = 0
KMC6 221033Z 24010KT 17/00 A2983 RMK A01 T01740001  RH  031%=      5-min Rain = 0
KMC6 221034Z 24010KT 17/00 A2983 RMK A01 T01740000  RH  031%=      5-min Rain = 0
KMC6 221035Z 24009KT 17/00 A2983 RMK A01 T017400-0  RH  031%=      5-min Rain = 0
KMC6 221036Z 24009KT 17/M00 A2983 RMK A01 T01741001  RH  031%=      5-min Rain = 0
KMC6 221037Z 24009KT 17/00 A2983 RMK A01 T017300-0  RH  031%=      5-min Rain = 0
KMC6 221038Z 25008KT 17/M00 A2983 RMK A01 T01721001  RH  031%=      5-min Rain = 0
KMC6 221039Z 25008KT 17/00 A2983 RMK A01 T017100-0  RH  031%=      5-min Rain = 0
KMC6 221040Z 25008KT 17/00 A2983 RMK A01 T01700001  RH  032%=      5-min Rain = 0
KMC6 221041Z 25008KT 17/00 A2983 RMK A01 T01680000  RH  032%=      5-min Rain = 0
KMC6 221042Z 25008KT 17/M00 A2983 RMK A01 T01671001  RH  032%=      5-min Rain = 0
KMC6 221043Z 25008KT 17/00 A2983 RMK A01 T01670001  RH  032%=      5-min Rain = 0
KMC6 221044Z 25009KT 17/00 A2983 RMK A01 T01650002  RH  033%=      5-min Rain = 0
KMC6 221045Z 25009KT 16/00 A2983 RMK A01 T01640002  RH  033%=      5-min Rain = 0
KMC6 221046Z 25009KT 16/00 A2983 RMK A01 T01630001  RH  033%=      5-min Rain = 0
KMC6 221047Z 24010KT 16/00 A2983 RMK A01 T01620001  RH  033%=      5-min Rain = 0
KMC6 221048Z 24010KT 16/M00 A2983 RMK A01 T01631003  RH  032%=      5-min Rain = 0
KMC6 221049Z 24009KT 17/M00 A2983 RMK A01 T01651003  RH  032%=      5-min Rain = 0
KMC6 221050Z 24009KT 17/M00 A2983 RMK A01 T01661001  RH  032%=      5-min Rain = 0
KMC6 221051Z 24009KT 17/00 A2983 RMK A01 T01650000  RH  033%=      5-min Rain = 0
KMC6 221052Z 24011KT 16/M00 A2983 RMK A01 T01641003  RH  032%=      5-min Rain = 0
KMC6 221053Z 23011KT 17/M01 A2984 RMK A01 T01661008  RH  031%=      5-min Rain = 0
KMC6 221054Z 23010KT 17/M01 A2984 RMK A01 T01681008  RH  030%=      5-min Rain = 0
KMC6 221055Z 24011KT 17/M01 A2984 RMK A01 T01691008  RH  030%=      5-min Rain = 0
KMC6 221056Z 24012KT 17/M01 A2984 RMK A01 T01691009  RH  030%=      5-min Rain = 0
KMC6 221057Z 24012KT 17/M01 A2984 RMK A01 T01701009  RH  030%=      5-min Rain = 0
KMC6 221058Z 24012KT 17/M01 A2984 RMK A01 T01701010  RH  029%=      5-min Rain = 0
KMC6 221059Z 24012KT 17/M01 A2984 RMK A01 T01711011  RH  029%=      5-min Rain = 0
KMC6 221100Z 23012KT 17/M01 A2984 RMK A01 T01721010  RH  029%=      5-min Rain = 0
KMC6 221101Z 23012KT 17/M01 A2984 RMK A01 T01731012  RH  028%=      5-min Rain = 0
KMC6 221102Z 23011KT 17/M01 A2984 RMK A01 T01741012  RH  028%=      5-min Rain = 0
KMC6 221103Z 23011KT 17/M01 A2984 RMK A01 T01741011  RH  028%=      5-min Rain = 0
KMC6 221104Z 23011KT 17/M01 A2984 RMK A01 T01741011  RH  028%=      5-min Rain = 0
KMC6 221105Z 22011KT 17/M01 A2984 RMK A01 T01741010  RH  029%=      5-min Rain = 0
KMC6 221106Z 22012KT 17/M01 A2984 RMK A01 T01721008  RH  029%=      5-min Rain = 0
KMC6 221107Z 23012KT 17/M01 A2984 RMK A01 T01701009  RH  030%=      5-min Rain = 0
KMC6 221108Z 24011KT 17/M01 A2984 RMK A01 T01691009  RH  030%=      5-min Rain = 0
KMC6 221109Z 25010KT 17/M01 A2984 RMK A01 T01681008  RH  030%=      5-min Rain = 0
KMC6 221110Z 25010KT 17/M01 A2984 RMK A01 T01671008  RH  030%=      5-min Rain = 0
KMC6 221111Z 25010KT 17/M01 A2984 RMK A01 T01671008  RH  030%=      5-min Rain = 0
KMC6 221112Z 25010KT 17/M01 A2984 RMK A01 T01661009  RH  030%=      5-min Rain = 0
KMC6 221113Z 25009KT 17/M01 A2984 RMK A01 T01661009  RH  030%=      5-min Rain = 0
KMC6 221114Z 25010KT 17/M01 A2984 RMK A01 T01661011  RH  030%=      5-min Rain = 0
KMC6 221115Z 25009KT 17/M01 A2985 RMK A01 T01661009  RH  030%=      5-min Rain = 0
KMC6 221116Z 25009KT 17/M01 A2985 RMK A01 T01651007  RH  031%=      5-min Rain = 0
KMC6 221117Z 25009KT 16/M01 A2985 RMK A01 T01631006  RH  031%=      5-min Rain = 0
KMC6 221118Z 25009KT 16/M01 A2985 RMK A01 T01621006  RH  032%=      5-min Rain = 0
KMC6 221119Z 25009KT 16/M00 A2985 RMK A01 T01601004  RH  033%=      5-min Rain = 0
KMC6 221120Z 25009KT 16/M00 A2985 RMK A01 T01581003  RH  033%=      5-min Rain = 0
KMC6 221121Z 24010KT 16/M00 A2985 RMK A01 T01571003  RH  034%=      5-min Rain = 0
KMC6 221122Z 25010KT 16/M00 A2985 RMK A01 T01561003  RH  034%=      5-min Rain = 0
KMC6 221123Z 24010KT 16/M00 A2985 RMK A01 T01561003  RH  034%=      5-min Rain = 0
KMC6 221124Z 24010KT 16/M00 A2985 RMK A01 T01561003  RH  034%=      5-min Rain = 0
KMC6 221125Z 25009KT 16/M00 A2985 RMK A01 T01551002  RH  034%=      5-min Rain = 0
KMC6 221126Z 25009KT 16/M00 A2985 RMK A01 T01551003  RH  034%=      5-min Rain = 0
KMC6 221127Z 26009KT 15/M00 A2985 RMK A01 T01541002  RH  034%=      5-min Rain = 0
KMC6 221128Z 26010KT 15/M00 A2985 RMK A01 T01531001  RH  035%=      5-min Rain = 0
KMC6 221129Z 26009KT 15/M00 A2985 RMK A01 T01511001  RH  036%=      5-min Rain = 0
KMC6 221130Z 26009KT 15/00 A2985 RMK A01 T01490003  RH  037%=      5-min Rain = 0
KMC6 221131Z 26009KT 15/00 A2985 RMK A01 T01470004  RH  038%=      5-min Rain = 0
KMC6 221132Z 26010KT 15/00 A2985 RMK A01 T01450004  RH  038%=      5-min Rain = 0
KMC6 221133Z 25010KT 14/00 A2985 RMK A01 T01440003  RH  038%=      5-min Rain = 0
KMC6 221134Z 25010KT 14/00 A2985 RMK A01 T01440001  RH  038%=      5-min Rain = 0
KMC6 221135Z 25011KT 15/M00 A2985 RMK A01 T01451001  RH  037%=      5-min Rain = 0
KMC6 221136Z 25010KT 15/M00 A2985 RMK A01 T01481003  RH  035%=      5-min Rain = 0
KMC6 221137Z 25010KT 15/M00 A2985 RMK A01 T01511004  RH  035%=      5-min Rain = 0
KMC6 221138Z 26009KT 15/M00 A2985 RMK A01 T01521004  RH  034%=      5-min Rain = 0
KMC6 221139Z 27009KT 15/M00 A2985 RMK A01 T01521002  RH  035%=      5-min Rain = 0
KMC6 221140Z 27008KT 15/00 A2985 RMK A01 T01500001  RH  036%=      5-min Rain = 0
KMC6 221141Z 27008KT 15/00 A2986 RMK A01 T01470003  RH  037%=      5-min Rain = 0
KMC6 221142Z 27008KT 14/00 A2986 RMK A01 T01440004  RH  038%=      5-min Rain = 0
KMC6 221143Z 27009KT 14/00 A2986 RMK A01 T01420004  RH  039%=      5-min Rain = 0
KMC6 221144Z 27009KT 14/01 A2986 RMK A01 T01410005  RH  039%=      5-min Rain = 0
KMC6 221145Z 26010KT 14/01 A2986 RMK A01 T01400005  RH  040%=      5-min Rain = 0
KMC6 221146Z 26010KT 14/01 A2986 RMK A01 T01400005  RH  040%=      5-min Rain = 0
KMC6 221147Z 26010KT 14/01 A2986 RMK A01 T01400006  RH  040%=      5-min Rain = 0
KMC6 221148Z 26009KT 14/01 A2986 RMK A01 T01400007  RH  040%=      5-min Rain = 0
KMC6 221149Z 26009KT 14/01 A2986 RMK A01 T01400007  RH  040%=      5-min Rain = 0
KMC6 221150Z 26009KT 14/01 A2986 RMK A01 T01390008  RH  041%=      5-min Rain = 0
KMC6 221151Z 26008KT 14/01 A2986 RMK A01 T01390007  RH  041%=      5-min Rain = 0
KMC6 221152Z 26008KT 14/01 A2986 RMK A01 T01390007  RH  040%=      5-min Rain = 0
KMC6 221153Z 26008KT 14/01 A2986 RMK A01 T01390007  RH  041%=      5-min Rain = 0
KMC6 221154Z 26008KT 14/01 A2986 RMK A01 T01390008  RH  041%=      5-min Rain = 0
KMC6 221155Z 25006KT 14/01 A2986 RMK A01 T01390008  RH  041%=      5-min Rain = 0
KMC6 221156Z 25006KT 14/01 A2986 RMK A01 T01380008  RH  041%=      5-min Rain = 0
KMC6 221157Z 26006KT 14/01 A2986 RMK A01 T01380008  RH  041%=      5-min Rain = 0
KMC6 221158Z 26006KT 14/01 A2986 RMK A01 T01390006  RH  040%=      5-min Rain = 0
KMC6 221159Z 27006KT 14/01 A2986 RMK A01 T01400007  RH  040%=      5-min Rain = 0
KMC6 221200Z 29008KT 14/01 A2986 RMK A01 T01400009  RH  041%=      5-min Rain = 0
KMC6 221201Z 29009KT 14/01 A2986 RMK A01 T01390010  RH  041%=      5-min Rain = 0
KMC6 221202Z 28009KT 14/01 A2986 RMK A01 T01380010  RH  042%=      5-min Rain = 0
KMC6 221203Z 28009KT 14/01 A2986 RMK A01 T01390007  RH  041%=      5-min Rain = 0
KMC6 221204Z 27011KT 14/00 A2986 RMK A01 T01420004  RH  039%=      5-min Rain = 0
KMC6 221205Z 27012KT 15/00 A2986 RMK A01 T014700-0  RH  037%=      5-min Rain = 0
KMC6 221206Z 28011KT 15/M00 A2986 RMK A01 T01521003  RH  035%=      5-min Rain = 0
KMC6 221207Z 29010KT 16/00 A2987 RMK A01 T01550002  RH  035%=      5-min Rain = 0
KMC6 221208Z 28010KT 15/01 A2987 RMK A01 T01540007  RH  037%=      5-min Rain = 0
KMC6 221209Z 27010KT 15/00 A2986 RMK A01 T01530002  RH  036%=      5-min Rain = 0
KMC6 221210Z 26010KT 16/M00 A2986 RMK A01 T01551001  RH  035%=      5-min Rain = 0
KMC6 221211Z 26009KT 16/00 A2986 RMK A01 T015700-0  RH  034%=      5-min Rain = 0
KMC6 221212Z 25009KT 16/00 A2986 RMK A01 T01580001  RH  034%=      5-min Rain = 0
KMC6 221213Z 24010KT 16/M00 A2986 RMK A01 T01581001  RH  034%=      5-min Rain = 0
KMC6 221214Z 24009KT 16/M00 A2986 RMK A01 T01601003  RH  033%=      5-min Rain = 0
KMC6 221215Z 24009KT 16/M00 A2986 RMK A01 T01621002  RH  033%=      5-min Rain = 0
KMC6 221216Z 24009KT 16/M00 A2986 RMK A01 T01621002  RH  033%=      5-min Rain = 0
KMC6 221217Z 24009KT 16/M00 A2986 RMK A01 T01641003  RH  032%=      5-min Rain = 0
KMC6 221218Z 25008KT 17/M00 A2986 RMK A01 T01651002  RH  032%=      5-min Rain = 0
KMC6 221219Z 25008KT 17/00 A2987 RMK A01 T01650002  RH  033%=      5-min Rain = 0
KMC6 221220Z 26007KT 16/00 A2987 RMK A01 T01640004  RH  034%=      5-min Rain = 0
KMC6 221221Z 26008KT 16/01 A2986 RMK A01 T01630006  RH  035%=      5-min Rain = 0
KMC6 221222Z 26008KT 16/01 A2986 RMK A01 T01620007  RH  035%=      5-min Rain = 0
KMC6 221223Z 25008KT 16/01 A2986 RMK A01 T01610008  RH  035%=      5-min Rain = 0
KMC6 221224Z 25007KT 16/01 A2986 RMK A01 T01600009  RH  036%=      5-min Rain = 0
KMC6 221225Z 24007KT 16/01 A2987 RMK A01 T01600011  RH  036%=      5-min Rain = 0
KMC6 221226Z 23007KT 16/01 A2987 RMK A01 T01600010  RH  036%=      5-min Rain = 0
KMC6 221227Z 22007KT 16/01 A2987 RMK A01 T01610010  RH  036%=      5-min Rain = 0
KMC6 221228Z 22007KT 16/01 A2987 RMK A01 T01630008  RH  035%=      5-min Rain = 0
KMC6 221229Z 23007KT 17/00 A2987 RMK A01 T01650003  RH  033%=      5-min Rain = 0
KMC6 221230Z 23007KT 17/00 A2987 RMK A01 T016900-0  RH  032%=      5-min Rain = 0
KMC6 221231Z 23007KT 17/00 A2987 RMK A01 T01720000  RH  031%=      5-min Rain = 0
KMC6 221232Z 23008KT 17/00 A2987 RMK A01 T01740000  RH  031%=      5-min Rain = 0
KMC6 221233Z 24008KT 18/00 A2987 RMK A01 T017500-0  RH  030%=      5-min Rain = 0
KMC6 221234Z 24007KT 18/M00 A2987 RMK A01 T01761001  RH  030%=      5-min Rain = 0
KMC6 221235Z 24006KT 18/00 A2987 RMK A01 T01770001  RH  030%=      5-min Rain = 0
KMC6 221236Z 24006KT 18/01 A2987 RMK A01 T01770005  RH  031%=      5-min Rain = 0
KMC6 221237Z 25005KT 18/01 A2987 RMK A01 T01770010  RH  033%=      5-min Rain = 0
KMC6 221238Z 25004KT 18/01 A2987 RMK A01 T01760013  RH  033%=      5-min Rain = 0
KMC6 221239Z 25004KT 18/02 A2987 RMK A01 T01760017  RH  034%=      5-min Rain = 0
KMC6 221240Z 25004KT 18/02 A2987 RMK A01 T01760016  RH  034%=      5-min Rain = 0
KMC6 221241Z 25004KT 18/02 A2987 RMK A01 T01760018  RH  034%=      5-min Rain = 0
KMC6 221242Z 23005KT 18/02 A2987 RMK A01 T01760021  RH  035%=      5-min Rain = 0
KMC6 221243Z 21006KT 18/02 A2988 RMK A01 T01760020  RH  035%=      5-min Rain = 0
KMC6 221244Z 21007KT 18/02 A2988 RMK A01 T01750016  RH  034%=      5-min Rain = 0
KMC6 221245Z 21007KT 18/02 A2988 RMK A01 T01750015  RH  034%=      5-min Rain = 0
KMC6 221246Z 22007KT 18/02 A2988 RMK A01 T01760016  RH  034%=      5-min Rain = 0
KMC6 221247Z 21007KT 18/02 A2988 RMK A01 T01760016  RH  034%=      5-min Rain = 0
KMC6 221248Z 21008KT 18/01 A2988 RMK A01 T01760012  RH  033%=      5-min Rain = 0
KMC6 221249Z 21009KT 18/00 A2988 RMK A01 T01780004  RH  031%=      5-min Rain = 0
KMC6 221250Z 22008KT 18/00 A2988 RMK A01 T01800004  RH  031%=      5-min Rain = 0
KMC6 221251Z 22008KT 18/00 A2988 RMK A01 T01800003  RH  030%=      5-min Rain = 0
KMC6 221252Z 22008KT 18/01 A2988 RMK A01 T01810005  RH  031%=      5-min Rain = 0
KMC6 221253Z 22007KT 18/01 A2988 RMK A01 T01810005  RH  031%=      5-min Rain = 0
KMC6 221254Z 22006KT 18/01 A2988 RMK A01 T01810010  RH  032%=      5-min Rain = 0
KMC6 221255Z 21009KT 18/01 A2988 RMK A01 T01820010  RH  031%=      5-min Rain = 0
KMC6 221256Z 21009KT 18/00 A2988 RMK A01 T018400-0  RH  029%=      5-min Rain = 0
KMC6 221257Z 21008KT 19/01 A2988 RMK A01 T01860007  RH  030%=      5-min Rain = 0
KMC6 221258Z 22008KT 19/01 A2988 RMK A01 T01860005  RH  029%=      5-min Rain = 0
KMC6 221259Z 22008KT 19/00 A2988 RMK A01 T01870003  RH  029%=      5-min Rain = 0
KMC6 221300Z 22008KT 19/01 A2988 RMK A01 T01870010  RH  030%=      5-min Rain = 0
KMC6 221301Z 22007KT 19/01 A2988 RMK A01 T01880007  RH  030%=      5-min Rain = 0
KMC6 221302Z 23008KT 19/00 A2988 RMK A01 T01880003  RH  029%=      5-min Rain = 0
KMC6 221303Z 23008KT 19/00 A2988 RMK A01 T01900004  RH  029%=      5-min Rain = 0
KMC6 221304Z 23006KT 19/00 A2988 RMK A01 T01910002  RH  028%=      5-min Rain = 0
KMC6 221305Z 24007KT 19/M00 A2988 RMK A01 T01931002  RH  027%=      5-min Rain = 0
KMC6 221306Z 24006KT 20/00 A2988 RMK A01 T01950000  RH  027%=      5-min Rain = 0
KMC6 221307Z 24007KT 20/00 A2988 RMK A01 T01960002  RH  027%=      5-min Rain = 0
KMC6 221308Z 24007KT 20/00 A2988 RMK A01 T01980000  RH  027%=      5-min Rain = 0
KMC6 221309Z 24007KT 20/M00 A2988 RMK A01 T01991002  RH  026%=      5-min Rain = 0
KMC6 221310Z 25007KT 20/M00 A2988 RMK A01 T02001002  RH  026%=      5-min Rain = 0
KMC6 221311Z 25007KT 20/M00 A2988 RMK A01 T02011001  RH  026%=      5-min Rain = 0
KMC6 221312Z 25007KT 20/01 A2988 RMK A01 T02010006  RH  027%=      5-min Rain = 0
KMC6 221313Z 25007KT 20/00 A2988 RMK A01 T02020004  RH  027%=      5-min Rain = 0
KMC6 221314Z 25007KT 20/M00 A2988 RMK A01 T02031001  RH  026%=      5-min Rain = 0
KMC6 221315Z 24006KT 20/00 A2988 RMK A01 T020300-0  RH  026%=      5-min Rain = 0
KMC6 221316Z 23006KT 20/00 A2988 RMK A01 T02040001  RH  026%=      5-min Rain = 0
KMC6 221317Z 23006KT 20/00 A2989 RMK A01 T02040002  RH  026%=      5-min Rain = 0
KMC6 221318Z 22006KT 21/00 A2989 RMK A01 T020500-0  RH  025%=      5-min Rain = 0
KMC6 221319Z 22006KT 21/01 A2989 RMK A01 T02060009  RH  027%=      5-min Rain = 0
KMC6 221320Z 22007KT 21/00 A2989 RMK A01 T02070004  RH  026%=      5-min Rain = 0
KMC6 221321Z 21007KT 21/01 A2989 RMK A01 T02080005  RH  026%=      5-min Rain = 0
KMC6 221322Z 20007KT 21/01 A2989 RMK A01 T02090010  RH  027%=      5-min Rain = 0
KMC6 221323Z 19007KT 21/01 A2989 RMK A01 T02100010  RH  026%=      5-min Rain = 0
KMC6 221324Z 19006KT 21/01 A2989 RMK A01 T02110013  RH  027%=      5-min Rain = 0
KMC6 221325Z 18007KT 21/02 A2989 RMK A01 T02120017  RH  027%=      5-min Rain = 0
KMC6 221326Z 19006KT 21/02 A2989 RMK A01 T02120024  RH  029%=      5-min Rain = 0
KMC6 221327Z 19007KT 21/03 A2989 RMK A01 T02130031  RH  030%=      5-min Rain = 0
KMC6 221328Z 20008KT 21/04 A2989 RMK A01 T02140039  RH  032%=      5-min Rain = 0
KMC6 221329Z 20008KT 22/04 A2989 RMK A01 T02160044  RH  032%=      5-min Rain = 0
KMC6 221330Z 20009KT 22/05 A2989 RMK A01 T02180048  RH  033%=      5-min Rain = 0
KMC6 221331Z 20008KT 22/05 A2989 RMK A01 T02200051  RH  033%=      5-min Rain = 0
KMC6 221332Z 20008KT 22/05 A2989 RMK A01 T02210051  RH  033%=      5-min Rain = 0
KMC6 221333Z 20009KT 22/06 A2989 RMK A01 T02230058  RH  034%=      5-min Rain = 0
KMC6 221334Z 21010KT 22/07 A2989 RMK A01 T02240067  RH  036%=      5-min Rain = 0
KMC6 221335Z 21011KT 23/08 A2989 RMK A01 T02260075  RH  038%=      5-min Rain = 0
KMC6 221336Z 21010KT 23/09 A2989 RMK A01 T02270085  RH  040%=      5-min Rain = 0
KMC6 221337Z 21010KT 23/09 A2989 RMK A01 T02290088  RH  040%=      5-min Rain = 0
KMC6 221338Z 21013KT 23/09 A2989 RMK A01 T02300092  RH  041%=      5-min Rain = 0
KMC6 221339Z 22011KT 23/09 A2989 RMK A01 T02310094  RH  042%=      5-min Rain = 0
KMC6 221340Z 22013KT 23/09 A2989 RMK A01 T02310093  RH  041%=      5-min Rain = 0
KMC6 221341Z 22015KT 23/09 A2989 RMK A01 T02320093  RH  041%=      5-min Rain = 0
KMC6 221342Z 21015KT 23/10 A2989 RMK A01 T02310096  RH  042%=      5-min Rain = 0
KMC6 221343Z 22016KT 23/10 A2989 RMK A01 T02310097  RH  043%=      5-min Rain = 0
KMC6 221344Z 22015KT 23/10 A2989 RMK A01 T02310097  RH  043%=      5-min Rain = 0
KMC6 221345Z 22015KT 23/10 A2989 RMK A01 T02310099  RH  043%=      5-min Rain = 0
KMC6 221346Z 22015KT 23/10 A2989 RMK A01 T02310097  RH  043%=      5-min Rain = 0
KMC6 221347Z 22015KT 23/10 A2989 RMK A01 T02310098  RH  043%=      5-min Rain = 0
KMC6 221348Z 22016KT 23/10 A2989 RMK A01 T02310097  RH  042%=      5-min Rain = 0
KMC6 221349Z 23015KT 23/10 A2989 RMK A01 T02310096  RH  042%=      5-min Rain = 0
KMC6 221350Z 23016KT 23/10 A2989 RMK A01 T02310098  RH  043%=      5-min Rain = 0
KMC6 221351Z 23015KT 23/10 A2989 RMK A01 T02310097  RH  043%=      5-min Rain = 0
KMC6 221352Z 23016KT 23/10 A2989 RMK A01 T02310097  RH  042%=      5-min Rain = 0
KMC6 221353Z 23015KT 23/10 A2989 RMK A01 T02310097  RH  043%=      5-min Rain = 0
KMC6 221354Z 22015KT 23/10 A2989 RMK A01 T02310097  RH  043%=      5-min Rain = 0
KMC6 221355Z 22012KT 23/10 A2989 RMK A01 T02320097  RH  042%=      5-min Rain = 0
KMC6 221356Z 23012G17KT 23/10 A2989 RMK A01 T02340099  RH  042%=      5-min Rain = 0
KMC6 221357Z 23016KT 23/10 A2989 RMK A01 T02340102  RH  043%=      5-min Rain = 0
KMC6 221358Z 24014KT 23/10 A299 RMK A01 T02340103  RH  044%=      5-min Rain = 0
KMC6 221359Z 24013KT 23/10 A299 RMK A01 T02340100  RH  043%=      5-min Rain = 0
KMC6 221400Z 24014KT 24/10 A299 RMK A01 T02350097  RH  042%=      5-min Rain = 0
KMC6 221401Z 24013KT 24/10 A299 RMK A01 T02350096  RH  041%=      5-min Rain = 0
KMC6 221402Z 24014KT 24/09 A299 RMK A01 T02350091  RH  040%=      5-min Rain = 0
KMC6 221403Z 25014KT 24/09 A299 RMK A01 T02350088  RH  039%=      5-min Rain = 0
KMC6 221404Z 25013KT 24/08 A299 RMK A01 T02350082  RH  037%=      5-min Rain = 0
KMC6 221405Z 26015KT 24/08 A299 RMK A01 T02350081  RH  037%=      5-min Rain = 0
KMC6 221406Z 26014KT 23/08 A299 RMK A01 T02340080  RH  037%=      5-min Rain = 0
KMC6 221407Z 26014KT 23/07 A299 RMK A01 T02340072  RH  035%=      5-min Rain = 0
KMC6 221408Z 27012KT 23/04 A299 RMK A01 T02330036  RH  028%=      5-min Rain = 0
KMC6 221409Z 26010KT 23/03 A299 RMK A01 T02320032  RH  027%=      5-min Rain = 0
KMC6 221410Z 26011KT 23/04 A299 RMK A01 T02320037  RH  028%=      5-min Rain = 0
KMC6 221411Z 27012KT 23/04 A2991 RMK A01 T02320042  RH  029%=      5-min Rain = 0
KMC6 221412Z 27013KT 23/02 A2991 RMK A01 T02320016  RH  024%=      5-min Rain = 0
KMC6 221413Z 26014KT 23/03 A2991 RMK A01 T02320026  RH  026%=      5-min Rain = 0
KMC6 221414Z 25012KT 23/04 A2991 RMK A01 T02320037  RH  028%=      5-min Rain = 0
KMC6 221415Z 24011KT 23/04 A299 RMK A01 T02320037  RH  028%=      5-min Rain = 0
KMC6 221416Z 24011KT 23/03 A299 RMK A01 T02330034  RH  027%=      5-min Rain = 0
KMC6 221417Z 24009KT 23/04 A2991 RMK A01 T02340039  RH  028%=      5-min Rain = 0
KMC6 221418Z 24010KT 24/04 A2991 RMK A01 T02360043  RH  029%=      5-min Rain = 0
KMC6 221419Z 24010KT 24/03 A2991 RMK A01 T02380032  RH  026%=      5-min Rain = 0
KMC6 221420Z 24011KT 24/03 A2991 RMK A01 T02380026  RH  025%=      5-min Rain = 0
KMC6 221421Z 23012KT 24/03 A2991 RMK A01 T02380026  RH  025%=      5-min Rain = 0
KMC6 221422Z 23011KT 24/03 A2991 RMK A01 T02370029  RH  026%=      5-min Rain = 0
KMC6 221423Z 23014KT 24/03 A2991 RMK A01 T02360032  RH  026%=      5-min Rain = 0
KMC6 221424Z 23012KT 24/02 A2991 RMK A01 T02360018  RH  024%=      5-min Rain = 0
KMC6 221425Z 24011KT 24/01 A2991 RMK A01 T02370009  RH  022%=      5-min Rain = 0
KMC6 221426Z 22010KT 24/02 A2991 RMK A01 T02360018  RH  024%=      5-min Rain = 0
KMC6 221427Z 23012KT 24/02 A2991 RMK A01 T02360023  RH  025%=      5-min Rain = 0
KMC6 221428Z 23010KT 24/02 A2991 RMK A01 T02370020  RH  024%=      5-min Rain = 0
KMC6 221429Z 23011KT 24/02 A2991 RMK A01 T02370021  RH  024%=      5-min Rain = 0
KMC6 221430Z 22012G17KT 24/02 A2991 RMK A01 T02380023  RH  025%=      5-min Rain = 0
KMC6 221431Z 22014KT 24/01 A2991 RMK A01 T02380014  RH  023%=      5-min Rain = 0
KMC6 221432Z 22012KT 24/02 A2991 RMK A01 T02380019  RH  024%=      5-min Rain = 0
KMC6 221433Z 23013KT 24/02 A2991 RMK A01 T02390016  RH  023%=      5-min Rain = 0
KMC6 221434Z 23013KT 24/01 A2991 RMK A01 T02400010  RH  022%=      5-min Rain = 0
KMC6 221435Z 24012KT 24/01 A2991 RMK A01 T02410008  RH  022%=      5-min Rain = 0
KMC6 221436Z 23014KT 24/02 A2991 RMK A01 T02430015  RH  022%=      5-min Rain = 0
KMC6 221437Z 24014KT 25/01 A2991 RMK A01 T02450011  RH  022%=      5-min Rain = 0
KMC6 221438Z 23013KT 25/03 A2991 RMK A01 T02450031  RH  025%=      5-min Rain = 0
KMC6 221439Z 23012KT 24/04 A2991 RMK A01 T02440035  RH  026%=      5-min Rain = 0
KMC6 221440Z 22013KT 25/04 A2991 RMK A01 T02450040  RH  026%=      5-min Rain = 0
KMC6 221441Z 22014KT 25/03 A2991 RMK A01 T02460028  RH  024%=      5-min Rain = 0
KMC6 221442Z 23015KT 25/01 A2991 RMK A01 T02450008  RH  021%=      5-min Rain = 0
KMC6 221443Z 23015KT 25/00 A2991 RMK A01 T02450002  RH  020%=      5-min Rain = 0
KMC6 221444Z 24015KT 25/01 A2991 RMK A01 T02460012  RH  022%=      5-min Rain = 0
KMC6 221445Z 24015KT 25/01 A2991 RMK A01 T02470011  RH  021%=      5-min Rain = 0
KMC6 221446Z 25014KT 25/02 A2991 RMK A01 T02470024  RH  023%=      5-min Rain = 0
KMC6 221447Z 25014KT 25/03 A2991 RMK A01 T02460034  RH  025%=      5-min Rain = 0
KMC6 221448Z 25013KT 25/05 A2991 RMK A01 T02450045  RH  027%=      5-min Rain = 0
KMC6 221449Z 24013KT 25/05 A2991 RMK A01 T02460045  RH  027%=      5-min Rain = 0
KMC6 221450Z 24013KT 25/05 A2991 RMK A01 T02460049  RH  028%=      5-min Rain = 0
KMC6 221451Z 24012KT 25/05 A2991 RMK A01 T02470048  RH  028%=      5-min Rain = 0
KMC6 221452Z 23013KT 25/05 A2991 RMK A01 T02470049  RH  028%=      5-min Rain = 0
KMC6 221453Z 24013KT 25/05 A2991 RMK A01 T02480052  RH  028%=      5-min Rain = 0
KMC6 221454Z 24015KT 25/06 A2991 RMK A01 T02480058  RH  029%=      5-min Rain = 0
KMC6 221455Z 24014KT 25/07 A2991 RMK A01 T02480065  RH  031%=      5-min Rain = 0
KMC6 221456Z 23013KT 25/05 A2991 RMK A01 T02490052  RH  028%=      5-min Rain = 0
KMC6 221457Z 25012KT 25/03 A2991 RMK A01 T02480031  RH  024%=      5-min Rain = 0
KMC6 221458Z 25012KT 25/01 A2991 RMK A01 T02500012  RH  021%=      5-min Rain = 0
KMC6 221459Z 25012KT 25/01 A2991 RMK A01 T02510014  RH  021%=      5-min Rain = 0
KMC6 221500Z 24013KT 25/02 A2991 RMK A01 T02520021  RH  022%=      5-min Rain = 0
KMC6 221501Z 24012KT 25/03 A2991 RMK A01 T02520026  RH  023%=      5-min Rain = 0
KMC6 221502Z 25014KT 25/03 A2991 RMK A01 T02510025  RH  023%=      5-min Rain = 0
KMC6 221503Z 26013KT 25/02 A2991 RMK A01 T02510018  RH  022%=      5-min Rain = 0
KMC6 221504Z 25013KT 25/02 A299 RMK A01 T02510016  RH  022%=      5-min Rain = 0
KMC6 221505Z 25012KT 25/01 A299 RMK A01 T02520012  RH  021%=      5-min Rain = 0
KMC6 221506Z 24012KT 25/02 A299 RMK A01 T02520020  RH  022%=      5-min Rain = 0
KMC6 221507Z 23012KT 25/03 A299 RMK A01 T02530027  RH  023%=      5-min Rain = 0
KMC6 221508Z 25015KT 25/02 A299 RMK A01 T02540021  RH  022%=      5-min Rain = 0
KMC6 221509Z 24014KT 25/02 A299 RMK A01 T02530017  RH  021%=      5-min Rain = 0
KMC6 221510Z 24015KT 25/02 A299 RMK A01 T02520016  RH  021%=      5-min Rain = 0
KMC6 221511Z 25013G18KT 26/01 A299 RMK A01 T02550011  RH  020%=      5-min Rain = 0
KMC6 221512Z 25014KT 26/01 A299 RMK A01 T02560006  RH  019%=      5-min Rain = 0
KMC6 221513Z 25012G17KT 26/01 A299 RMK A01 T02560005  RH  019%=      5-min Rain = 0
KMC6 221514Z 26014KT 26/00 A299 RMK A01 T02560004  RH  019%=      5-min Rain = 0
KMC6 221515Z 26015KT 26/M00 A299 RMK A01 T02561004  RH  018%=      5-min Rain = 0
KMC6 221516Z 26013KT 26/M01 A299 RMK A01 T02551005  RH  018%=      5-min Rain = 0
KMC6 221517Z 25012KT 26/M01 A299 RMK A01 T02551009  RH  018%=      5-min Rain = 0
KMC6 221518Z 24013KT 26/M01 A299 RMK A01 T02551005  RH  018%=      5-min Rain = 0
KMC6 221519Z 24012KT 26/M01 A299 RMK A01 T02571012  RH  017%=      5-min Rain = 0
KMC6 221520Z 25012KT 26/M02 A299 RMK A01 T02571015  RH  017%=      5-min Rain = 0
KMC6 221521Z 25012KT 26/M01 A299 RMK A01 T02571008  RH  017%=      5-min Rain = 0
KMC6 221522Z 25011KT 26/M02 A299 RMK A01 T02571016  RH  016%=      5-min Rain = 0
KMC6 221523Z 25009KT 25/M02 A2991 RMK A01 T02541017  RH  017%=      5-min Rain = 0
KMC6 221524Z 25012KT 26/M00 A2991 RMK A01 T02551004  RH  018%=      5-min Rain = 0
KMC6 221525Z 24013KT 26/M02 A2991 RMK A01 T02571017  RH  016%=      5-min Rain = 0
KMC6 221526Z 24012KT 26/M01 A2991 RMK A01 T02571014  RH  017%=      5-min Rain = 0
KMC6 221527Z 25011KT 26/M02 A2991 RMK A01 T02591017  RH  016%=      5-min Rain = 0
KMC6 221528Z 25010KT 26/M01 A2991 RMK A01 T02591011  RH  017%=      5-min Rain = 0
KMC6 221529Z 25010KT 26/M01 A299 RMK A01 T02601007  RH  017%=      5-min Rain = 0
KMC6 221530Z 25011KT 26/M01 A299 RMK A01 T02611012  RH  017%=      5-min Rain = 0
KMC6 221531Z 25012KT 26/M02 A299 RMK A01 T02611018  RH  016%=      5-min Rain = 0
KMC6 221532Z 24012KT 26/M02 A299 RMK A01 T02601022  RH  015%=      5-min Rain = 0
KMC6 221533Z 24012KT 26/M02 A299 RMK A01 T02591016  RH  016%=      5-min Rain = 0
KMC6 221534Z 24012KT 26/M02 A299 RMK A01 T02601023  RH  015%=      5-min Rain = 0
KMC6 221535Z 24014KT 26/M03 A299 RMK A01 T02601031  RH  015%=      5-min Rain = 0
KMC6 221536Z 24012KT 26/M03 A299 RMK A01 T02591028  RH  015%=      5-min Rain = 0
KMC6 221537Z 25012KT 26/M03 A299 RMK A01 T02571028  RH  015%=      5-min Rain = 0
KMC6 221538Z 24013KT 26/M03 A299 RMK A01 T02571026  RH  015%=      5-min Rain = 0
KMC6 221539Z 25013KT 26/M03 A299 RMK A01 T02581025  RH  015%=      5-min Rain = 0
KMC6 221540Z 25013G20KT 26/M02 A299 RMK A01 T02581018  RH  016%=      5-min Rain = 0
KMC6 221541Z 25014KT 26/M02 A299 RMK A01 T02591023  RH  015%=      5-min Rain = 0
KMC6 221542Z 26012KT 26/M02 A299 RMK A01 T02591022  RH  016%=      5-min Rain = 0
KMC6 221543Z 26012KT 26/M01 A299 RMK A01 T02591008  RH  017%=      5-min Rain = 0
KMC6 221544Z 25013KT 26/M01 A299 RMK A01 T02621011  RH  017%=      5-min Rain = 0
KMC6 221545Z 24012KT 26/M02 A299 RMK A01 T02631016  RH  016%=      5-min Rain = 0
KMC6 221546Z 25011G16KT 26/M02 A299 RMK A01 T02621020  RH  015%=      5-min Rain = 0
KMC6 221547Z 24013KT 26/M01 A299 RMK A01 T02631013  RH  016%=      5-min Rain = 0
KMC6 221548Z 24012KT 27/M01 A299 RMK A01 T02661014  RH  016%=      5-min Rain = 0
KMC6 221549Z 25011KT 27/M02 A299 RMK A01 T02681021  RH  015%=      5-min Rain = 0
KMC6 221550Z 24014KT 27/M02 A299 RMK A01 T02681019  RH  015%=      5-min Rain = 0
KMC6 221551Z 25013KT 27/M02 A299 RMK A01 T02651022  RH  015%=      5-min Rain = 0
KMC6 221552Z 24012KT 27/M03 A299 RMK A01 T02651026  RH  015%=      5-min Rain = 0
KMC6 221553Z 25013KT 27/M02 A299 RMK A01 T02651015  RH  016%=      5-min Rain = 0
KMC6 221554Z 26011KT 27/M02 A299 RMK A01 T02651016  RH  016%=      5-min Rain = 0
KMC6 221555Z 26012KT 27/M01 A299 RMK A01 T02651005  RH  017%=      5-min Rain = 0
KMC6 221556Z 25011KT 27/M02 A299 RMK A01 T02651017  RH  016%=      5-min Rain = 0
KMC6 221557Z 25010G15KT 26/M01 A299 RMK A01 T02641011  RH  016%=      5-min Rain = 0
KMC6 221558Z 24014KT 27/M01 A299 RMK A01 T02661007  RH  017%=      5-min Rain = 0
KMC6 221559Z 24011KT 27/M01 A299 RMK A01 T02681008  RH  016%=      5-min Rain = 0
KMC6 221600Z 25010G15KT 27/M01 A299 RMK A01 T02681007  RH  016%=      5-min Rain = 0
KMC6 221601Z 25013KT 27/M00 A299 RMK A01 T02701002  RH  017%=      5-min Rain = 0
KMC6 221602Z 24011KT 27/M01 A299 RMK A01 T02711008  RH  016%=      5-min Rain = 0
KMC6 221603Z 24010KT 27/M01 A299 RMK A01 T02701007  RH  016%=      5-min Rain = 0
KMC6 221604Z 25012KT 27/M00 A299 RMK A01 T02711004  RH  017%=      5-min Rain = 0
KMC6 221605Z 25014KT 27/M01 A299 RMK A01 T02731012  RH  015%=      5-min Rain = 0
KMC6 221606Z 24014KT 27/M01 A299 RMK A01 T02721010  RH  016%=      5-min Rain = 0
KMC6 221607Z 24012G18KT 27/M01 A299 RMK A01 T02721007  RH  016%=      5-min Rain = 0
KMC6 221608Z 24015KT 27/M02 A299 RMK A01 T02721015  RH  015%=      5-min Rain = 0
KMC6 221609Z 24013KT 27/M01 A299 RMK A01 T02721014  RH  015%=      5-min Rain = 0
KMC6 221610Z 25012KT 27/M02 A299 RMK A01 T02721018  RH  015%=      5-min Rain = 0
KMC6 221611Z 26011KT 27/M01 A299 RMK A01 T02701014  RH  015%=      5-min Rain = 0
KMC6 221612Z 26010KT 27/M01 A299 RMK A01 T02711007  RH  016%=      5-min Rain = 0
KMC6 221613Z 25012KT 28/M01 A299 RMK A01 T02751007  RH  016%=      5-min Rain = 0
KMC6 221614Z 25014KT 28/M03 A299 RMK A01 T02751025  RH  014%=      5-min Rain = 0
KMC6 221615Z 25012KT 27/M02 A299 RMK A01 T02741015  RH  015%=      5-min Rain = 0
KMC6 221616Z 24012KT 28/M01 A299 RMK A01 T02771010  RH  015%=      5-min Rain = 0
KMC6 221617Z 26012G17KT 28/M01 A299 RMK A01 T02791014  RH  015%=      5-min Rain = 0
KMC6 221618Z 26014KT 28/M02 A299 RMK A01 T02791016  RH  015%=      5-min Rain = 0
KMC6 221619Z 25011KT 28/M02 A299 RMK A01 T02791024  RH  014%=      5-min Rain = 0
KMC6 221620Z 26012KT 28/M01 A299 RMK A01 T02781014  RH  015%=      5-min Rain = 0
KMC6 221621Z 26012KT 28/M02 A299 RMK A01 T02791016  RH  014%=      5-min Rain = 0
KMC6 221622Z 25012KT 28/M01 A299 RMK A01 T02791014  RH  015%=      5-min Rain = 0
KMC6 221623Z 25015G20KT 28/M02 A299 RMK A01 T02791017  RH  014%=      5-min Rain = 0
KMC6 221624Z 26015KT 28/M02 A299 RMK A01 T02801017  RH  014%=      5-min Rain = 0
KMC6 221625Z 26012KT 28/M02 A299 RMK A01 T02811021  RH  014%=      5-min Rain = 0
KMC6 221626Z 24013KT 28/M02 A299 RMK A01 T02811021  RH  014%=      5-min Rain = 0
KMC6 221627Z 26013KT 28/M02 A299 RMK A01 T02821021  RH  014%=      5-min Rain = 0
KMC6 221628Z 26014KT 28/M02 A299 RMK A01 T02811024  RH  014%=      5-min Rain = 0
KMC6 221629Z 26012KT 28/M01 A299 RMK A01 T02801014  RH  015%=      5-min Rain = 0
KMC6 221630Z 26014KT 28/M02 A299 RMK A01 T02831023  RH  013%=      5-min Rain = 0
KMC6 221631Z 26011KT 28/M03 A299 RMK A01 T02811029  RH  013%=      5-min Rain = 0
KMC6 221632Z 27012KT 28/M01 A299 RMK A01 T02801012  RH  015%=      5-min Rain = 0
KMC6 221633Z 27010KT 28/M01 A299 RMK A01 T02821012  RH  015%=      5-min Rain = 0
KMC6 221634Z 26010KT 28/M01 A299 RMK A01 T02831008  RH  015%=      5-min Rain = 0
KMC6 221635Z 25012KT 28/M02 A299 RMK A01 T02841016  RH  014%=      5-min Rain = 0
KMC6 221636Z 25013KT 28/M03 A299 RMK A01 T02841027  RH  013%=      5-min Rain = 0
KMC6 221637Z 25014KT 28/M03 A299 RMK A01 T02841027  RH  013%=      5-min Rain = 0
KMC6 221638Z 26012KT 28/M02 A299 RMK A01 T02841022  RH  013%=      5-min Rain = 0
KMC6 221639Z 25010KT 28/M02 A299 RMK A01 T02841018  RH  014%=      5-min Rain = 0
KMC6 221640Z 25013KT 29/M01 A299 RMK A01 T02851014  RH  014%=      5-min Rain = 0
KMC6 221641Z 26011KT 29/M02 A299 RMK A01 T02871016  RH  014%=      5-min Rain = 0
KMC6 221642Z 26014KT 29/M02 A299 RMK A01 T02861019  RH  014%=      5-min Rain = 0
KMC6 221643Z 26013KT 29/M03 A299 RMK A01 T02851030  RH  013%=      5-min Rain = 0
KMC6 221644Z 25015KT 28/M03 A299 RMK A01 T02841028  RH  013%=      5-min Rain = 0
KMC6 221645Z 24014KT 29/M03 A299 RMK A01 T02851032  RH  012%=      5-min Rain = 0
KMC6 221646Z 24015KT 29/M04 A299 RMK A01 T02891035  RH  012%=      5-min Rain = 0
KMC6 221647Z 24013KT 29/M04 A299 RMK A01 T02881039  RH  012%=      5-min Rain = 0
KMC6 221648Z 24014KT 29/M04 A299 RMK A01 T02861039  RH  012%=      5-min Rain = 0
KMC6 221649Z 24011G16KT 29/M04 A299 RMK A01 T02851037  RH  012%=      5-min Rain = 0
KMC6 221650Z 24012G17KT 29/M03 A299 RMK A01 T02851027  RH  013%=      5-min Rain = 0
KMC6 221651Z 24013KT 29/M04 A299 RMK A01 T02871036  RH  012%=      5-min Rain = 0
KMC6 221652Z 26012G19KT 29/M03 A299 RMK A01 T02891026  RH  013%=      5-min Rain = 0
KMC6 221653Z 26013KT 29/M01 A299 RMK A01 T02911010  RH  014%=      5-min Rain = 0
KMC6 221654Z 26010KT 29/M02 A299 RMK A01 T02921017  RH  013%=      5-min Rain = 0
KMC6 221655Z 27009KT 29/M01 A299 RMK A01 T02901014  RH  014%=      5-min Rain = 0
KMC6 221656Z 26012KT 29/00 A299 RMK A01 T02890000  RH  015%=      5-min Rain = 0
KMC6 221657Z 24010KT 29/M01 A299 RMK A01 T02931013  RH  014%=      5-min Rain = 0
KMC6 221658Z 26009G14KT 29/M01 A299 RMK A01 T02941011  RH  014%=      5-min Rain = 0
KMC6 221659Z 27010KT 30/M00 A299 RMK A01 T02951003  RH  014%=      5-min Rain = 0
KMC6 221700Z 27010KT 30/M01 A299 RMK A01 T02951006  RH  014%=      5-min Rain = 0
KMC6 221701Z 25010KT 30/M01 A299 RMK A01 T02951005  RH  014%=      5-min Rain = 0
KMC6 221702Z 25011KT 29/M01 A299 RMK A01 T02941009  RH  014%=      5-min Rain = 0
KMC6 221703Z 26011KT 29/M01 A299 RMK A01 T02931007  RH  014%=      5-min Rain = 0
KMC6 221704Z 24011KT 30/M01 A299 RMK A01 T02951008  RH  014%=      5-min Rain = 0
KMC6 221705Z 25012KT 30/M02 A299 RMK A01 T02951018  RH  013%=      5-min Rain = 0
KMC6 221706Z 26009KT 30/M01 A299 RMK A01 T02951010  RH  014%=      5-min Rain = 0
KMC6 221707Z 26014KT 30/M01 A299 RMK A01 T02951010  RH  014%=      5-min Rain = 0
KMC6 221708Z 26013KT 30/M01 A299 RMK A01 T02951012  RH  014%=      5-min Rain = 0
KMC6 221709Z 26012KT 29/M01 A299 RMK A01 T02931012  RH  014%=      5-min Rain = 0
KMC6 221710Z 25014KT 29/M01 A299 RMK A01 T02931009  RH  014%=      5-min Rain = 0
KMC6 221711Z 24010KT 29/M02 A299 RMK A01 T02941016  RH  013%=      5-min Rain = 0
KMC6 221712Z 24011KT 29/M02 A299 RMK A01 T02921015  RH  014%=      5-min Rain = 0
KMC6 221713Z 25013KT 29/M01 A299 RMK A01 T02931007  RH  014%=      5-min Rain = 0
KMC6 221714Z 25012KT 30/M02 A299 RMK A01 T02951015  RH  013%=      5-min Rain = 0
KMC6 221715Z 25010KT 30/M02 A299 RMK A01 T02951016  RH  013%=      5-min Rain = 0
KMC6 221716Z 25010KT 29/M01 A299 RMK A01 T02941014  RH  013%=      5-min Rain = 0
KMC6 221717Z 25010KT 29/M01 A299 RMK A01 T02931009  RH  014%=      5-min Rain = 0
KMC6 221718Z 26011KT 30/M00 A299 RMK A01 T02961001  RH  015%=      5-min Rain = 0
KMC6 221719Z 26012KT 30/M01 A299 RMK A01 T02991010  RH  013%=      5-min Rain = 0
KMC6 221720Z 27012KT 30/M02 A299 RMK A01 T02991016  RH  013%=      5-min Rain = 0
KMC6 221721Z 26012KT 30/M01 A299 RMK A01 T02991008  RH  014%=      5-min Rain = 0
KMC6 221722Z 25011KT 30/M02 A299 RMK A01 T02991016  RH  013%=      5-min Rain = 0
KMC6 221723Z 26012KT 30/M01 A299 RMK A01 T02981013  RH  013%=      5-min Rain = 0
KMC6 221724Z 26013KT 30/M01 A299 RMK A01 T02991013  RH  013%=      5-min Rain = 0
KMC6 221725Z 25012KT 30/M02 A299 RMK A01 T02991016  RH  013%=      5-min Rain = 0
KMC6 221726Z 24009KT 30/M02 A299 RMK A01 T02971022  RH  012%=      5-min Rain = 0
KMC6 221727Z 25011KT 30/M02 A299 RMK A01 T02961017  RH  013%=      5-min Rain = 0
KMC6 221728Z 26010KT 30/M00 A299 RMK A01 T02991004  RH  014%=      5-min Rain = 0
KMC6 221729Z 26010KT 30/M01 A299 RMK A01 T03031014  RH  013%=      5-min Rain = 0
KMC6 221730Z 26011KT 30/M01 A299 RMK A01 T03011011  RH  013%=      5-min Rain = 0
KMC6 221731Z 27012KT 30/M01 A299 RMK A01 T03031010  RH  013%=      5-min Rain = 0
KMC6 221732Z 25012KT 30/M01 A299 RMK A01 T03031014  RH  013%=      5-min Rain = 0
KMC6 221733Z 25011KT 30/M01 A299 RMK A01 T03011011  RH  013%=      5-min Rain = 0
KMC6 221734Z 26011KT 30/M01 A299 RMK A01 T03011010  RH  013%=      5-min Rain = 0
KMC6 221735Z 25012KT 30/M01 A299 RMK A01 T03011011  RH  013%=      5-min Rain = 0
KMC6 221736Z 25009KT 30/M01 A299 RMK A01 T03021013  RH  013%=      5-min Rain = 0
KMC6 221737Z 27008G13KT 30/M01 A299 RMK A01 T03021005  RH  014%=      5-min Rain = 0
KMC6 221738Z 25010KT 30/M01 A299 RMK A01 T03031005  RH  014%=      5-min Rain = 0
KMC6 221739Z 24012G20KT 30/M01 A299 RMK A01 T03031012  RH  013%=      5-min Rain = 0
KMC6 221740Z 26013G18KT 31/M00 A299 RMK A01 T03051003  RH  014%=      5-min Rain = 0
KMC6 221741Z 27012KT 31/00 A299 RMK A01 T03080003  RH  014%=      5-min Rain = 0
KMC6 221742Z 27012KT 31/M00 A299 RMK A01 T03091002  RH  014%=      5-min Rain = 0
KMC6 221743Z 26011KT 31/M01 A299 RMK A01 T03061006  RH  013%=      5-min Rain = 0
KMC6 221744Z 27009KT 30/M01 A299 RMK A01 T03041005  RH  014%=      5-min Rain = 0
KMC6 221745Z 27008KT 30/M01 A299 RMK A01 T03021005  RH  014%=      5-min Rain = 0
KMC6 221746Z 26011G16KT 30/M00 A299 RMK A01 T03021001  RH  014%=      5-min Rain = 0
KMC6 221747Z 24012KT 30/M02 A299 RMK A01 T03041017  RH  012%=      5-min Rain = 0
KMC6 221748Z 24010KT 30/M02 A299 RMK A01 T03041022  RH  012%=      5-min Rain = 0
KMC6 221749Z 25012KT 30/M01 A299 RMK A01 T03031007  RH  013%=      5-min Rain = 0
KMC6 221750Z 24011KT 31/M02 A299 RMK A01 T03051018  RH  012%=      5-min Rain = 0
KMC6 221751Z 24009KT 30/M03 A299 RMK A01 T03041032  RH  011%=      5-min Rain = 0
KMC6 221752Z 24007KT 30/M02 A299 RMK A01 T03021024  RH  012%=      5-min Rain = 0
KMC6 221753Z 24009KT 30/M02 A299 RMK A01 T03041023  RH  012%=      5-min Rain = 0
KMC6 221754Z 27010KT 31/M02 A299 RMK A01 T03061016  RH  012%=      5-min Rain = 0
KMC6 221755Z 29010KT 31/M01 A299 RMK A01 T03061008  RH  013%=      5-min Rain = 0
KMC6 221756Z 29007KT 31/M01 A299 RMK A01 T03071010  RH  013%=      5-min Rain = 0
KMC6 221757Z 26010KT 31/M01 A299 RMK A01 T03081007  RH  013%=      5-min Rain = 0
KMC6 221758Z 26010KT 31/M01 A299 RMK A01 T03081008  RH  013%=      5-min Rain = 0
KMC6 221759Z 26012KT 31/M02 A299 RMK A01 T03071016  RH  012%=      5-min Rain = 0
KMC6 221800Z 28009KT 31/M02 A299 RMK A01 T03051016  RH  012%=      5-min Rain = 0
KMC6 221801Z 29005G10KT 30/M01 A299 RMK A01 T03041014  RH  013%=      5-min Rain = 0
KMC6 221802Z 27011KT 31/M00 A299 RMK A01 T03061004  RH  014%=      5-min Rain = 0
KMC6 221803Z 26009KT 31/M01 A299 RMK A01 T03091012  RH  013%=      5-min Rain = 0
KMC6 221804Z 29008KT 31/M01 A299 RMK A01 T03091007  RH  013%=      5-min Rain = 0
KMC6 221805Z 28008KT 31/M01 A299 RMK A01 T03101010  RH  013%=      5-min Rain = 0
KMC6 221806Z 27010KT 31/M01 A299 RMK A01 T03111006  RH  013%=      5-min Rain = 0
KMC6 221807Z 25010KT 31/M01 A299 RMK A01 T03121014  RH  012%=      5-min Rain = 0
KMC6 221808Z 24005KT 31/M03 A299 RMK A01 T03111026  RH  011%=      5-min Rain = 0
KMC6 221809Z 25008KT 31/M02 A2989 RMK A01 T03101017  RH  012%=      5-min Rain = 0
KMC6 221810Z 25009KT 31/M01 A2989 RMK A01 T03111011  RH  013%=      5-min Rain = 0
KMC6 221811Z 26010KT 31/M01 A2989 RMK A01 T03111014  RH  012%=      5-min Rain = 0
KMC6 221812Z 27007G15KT 31/M01 A2989 RMK A01 T03121011  RH  012%=      5-min Rain = 0
KMC6 221813Z 23012G18KT 31/M02 A2989 RMK A01 T03141016  RH  012%=      5-min Rain = 0
KMC6 221814Z 25013KT 31/M03 A2989 RMK A01 T03141027  RH  011%=      5-min Rain = 0
KMC6 221815Z 24009KT 31/M02 A2989 RMK A01 T03121019  RH  012%=      5-min Rain = 0
KMC6 221816Z 23011KT 31/M03 A2989 RMK A01 T03121026  RH  011%=      5-min Rain = 0
KMC6 221817Z 26013KT 31/M02 A2989 RMK A01 T03121018  RH  012%=      5-min Rain = 0
KMC6 221818Z 26010G15KT 31/M02 A2989 RMK A01 T03141021  RH  011%=      5-min Rain = 0
KMC6 221819Z 28009G14KT 31/M02 A2989 RMK A01 T03131024  RH  011%=      5-min Rain = 0
KMC6 221820Z 25011G16KT 31/M01 A2989 RMK A01 T03131013  RH  012%=      5-min Rain = 0
KMC6 221821Z 24008KT 32/M03 A2989 RMK A01 T03151026  RH  011%=      5-min Rain = 0
KMC6 221822Z 25007KT 31/M03 A2989 RMK A01 T03111030  RH  011%=      5-min Rain = 0
KMC6 221823Z 25005KT 31/M03 A2989 RMK A01 T03091033  RH  011%=      5-min Rain = 0
KMC6 221824Z 27011KT 31/M02 A2989 RMK A01 T03101023  RH  012%=      5-min Rain = 0
KMC6 221825Z 27012KT 31/M03 A2989 RMK A01 T03131029  RH  011%=      5-min Rain = 0
KMC6 221826Z 25013KT 32/M03 A2989 RMK A01 T03161027  RH  011%=      5-min Rain = 0
KMC6 221827Z 25010KT 32/M04 A2989 RMK A01 T03161037  RH  010%=      5-min Rain = 0
KMC6 221828Z 25009KT 32/M03 A2989 RMK A01 T03151034  RH  010%=      5-min Rain = 0
KMC6 221829Z 27006KT 31/M04 A2989 RMK A01 T03121035  RH  010%=      5-min Rain = 0
KMC6 221830Z 25008G13KT 31/M03 A2989 RMK A01 T03111034  RH  010%=      5-min Rain = 0
KMC6 221831Z 25007G12KT 31/M04 A2989 RMK A01 T03121037  RH  010%=      5-min Rain = 0
KMC6 221832Z 26006KT 31/M03 A2989 RMK A01 T03111031  RH  011%=      5-min Rain = 0
KMC6 221833Z 24009KT 31/M03 A2989 RMK A01 T03121028  RH  011%=      5-min Rain = 0
KMC6 221834Z 25006KT 31/M03 A2989 RMK A01 T03141027  RH  011%=      5-min Rain = 0
KMC6 221835Z 23004KT 32/M04 A2989 RMK A01 T03151037  RH  010%=      5-min Rain = 0
KMC6 221836Z 28007KT 32/M02 A2989 RMK A01 T03161016  RH  012%=      5-min Rain = 0
KMC6 221837Z 28008KT 32/00 A2989 RMK A01 T032300-0  RH  013%=      5-min Rain = 0
KMC6 221838Z 25007KT 33/M01 A2989 RMK A01 T03281010  RH  011%=      5-min Rain = 0
KMC6 221839Z 24006KT 33/M03 A2989 RMK A01 T03261030  RH  010%=      5-min Rain = 0
KMC6 221840Z 24008KT 32/M03 A2989 RMK A01 T03231030  RH  010%=      5-min Rain = 0
KMC6 221841Z 25007G12KT 32/M03 A2989 RMK A01 T03201030  RH  010%=      5-min Rain = 0
KMC6 221842Z 25008KT 32/M02 A2989 RMK A01 T03191020  RH  011%=      5-min Rain = 0
KMC6 221843Z 25008KT 32/M04 A2989 RMK A01 T03201035  RH  010%=      5-min Rain = 0
KMC6 221844Z 25008KT 32/M04 A2989 RMK A01 T03171037  RH  010%=      5-min Rain = 0
KMC6 221845Z 25004KT 32/M04 A2989 RMK A01 T03151035  RH  010%=      5-min Rain = 0
KMC6 221846Z 22004KT 32/M02 A2989 RMK A01 T03161024  RH  011%=      5-min Rain = 0
KMC6 221847Z 22002KT 32/M04 A2989 RMK A01 T03181037  RH  010%=      5-min Rain = 0
KMC6 221848Z 28006KT 32/M04 A2989 RMK A01 T03181036  RH  010%=      5-min Rain = 0
KMC6 221849Z 29008KT 32/M04 A2989 RMK A01 T03171036  RH  010%=      5-min Rain = 0
KMC6 221850Z 28006KT 32/M04 A2989 RMK A01 T03181041  RH  010%=      5-min Rain = 0
KMC6 221851Z 27007KT 32/M03 A2989 RMK A01 T03181030  RH  010%=      5-min Rain = 0
KMC6 221852Z 26007KT 32/M04 A2989 RMK A01 T03211035  RH  010%=      5-min Rain = 0
KMC6 221853Z 27008KT 32/M05 A2989 RMK A01 T03211045  RH  009%=      5-min Rain = 0
KMC6 221854Z 28009KT 32/M04 A2989 RMK A01 T03191038  RH  010%=      5-min Rain = 0
KMC6 221855Z 28009KT 32/M03 A2989 RMK A01 T03201032  RH  010%=      5-min Rain = 0
KMC6 221856Z 28008KT 32/M04 A2989 RMK A01 T03231038  RH  010%=      5-min Rain = 0
KMC6 221857Z 29004KT 32/M03 A2989 RMK A01 T03231033  RH  010%=      5-min Rain = 0
KMC6 221858Z 29005KT 32/M04 A2989 RMK A01 T03241037  RH  010%=      5-min Rain = 0
KMC6 221859Z 02003KT 32/M05 A2988 RMK A01 T03241045  RH  009%=      5-min Rain = 0
KMC6 221900Z 29003KT 32/M04 A2988 RMK A01 T03221040  RH  009%=      5-min Rain = 0
KMC6 221901Z 26007KT 32/M04 A2988 RMK A01 T03231036  RH  010%=      5-min Rain = 0
KMC6 221902Z 27008KT 32/M04 A2988 RMK A01 T03231038  RH  010%=      5-min Rain = 0
KMC6 221903Z 28007KT 32/M04 A2988 RMK A01 T03221037  RH  010%=      5-min Rain = 0
KMC6 221904Z 29005KT 32/M02 A2988 RMK A01 T03221022  RH  011%=      5-min Rain = 0
KMC6 221905Z 24008KT 33/M02 A2988 RMK A01 T03271024  RH  010%=      5-min Rain = 0
KMC6 221906Z 25005KT 33/M05 A2988 RMK A01 T03261049  RH  009%=      5-min Rain = 0
KMC6 221907Z 23006KT 32/M04 A2988 RMK A01 T03221041  RH  009%=      5-min Rain = 0
KMC6 221908Z 22007KT 32/M04 A2988 RMK A01 T03211038  RH  010%=      5-min Rain = 0
KMC6 221909Z 25008KT 32/M03 A2988 RMK A01 T03231030  RH  010%=      5-min Rain = 0
KMC6 221910Z 28008KT 33/M02 A2988 RMK A01 T03281019  RH  011%=      5-min Rain = 0
KMC6 221911Z 26009KT 33/M03 A2988 RMK A01 T03291033  RH  010%=      5-min Rain = 0
KMC6 221912Z 27007KT 33/M03 A2988 RMK A01 T03261027  RH  010%=      5-min Rain = 0
KMC6 221913Z 28007G12KT 33/M04 A2988 RMK A01 T03281036  RH  009%=      5-min Rain = 0
KMC6 221914Z 26011KT 33/M03 A2988 RMK A01 T03281031  RH  010%=      5-min Rain = 0
KMC6 221915Z 26009KT 33/M04 A2988 RMK A01 T03271043  RH  009%=      5-min Rain = 0
KMC6 221916Z 26008KT 32/M04 A2988 RMK A01 T03241041  RH  009%=      5-min Rain = 0
KMC6 221917Z 27008KT 32/M04 A2988 RMK A01 T03231040  RH  009%=      5-min Rain = 0
KMC6 221918Z 29006KT 32/M04 A2988 RMK A01 T03221037  RH  010%=      5-min Rain = 0
KMC6 221919Z 30008KT 32/M04 A2988 RMK A01 T03241035  RH  010%=      5-min Rain = 0
KMC6 221920Z 31003KT 33/M05 A2988 RMK A01 T03251051  RH  009%=      5-min Rain = 0
KMC6 221921Z 32003KT 32/M04 A2988 RMK A01 T03231044  RH  009%=      5-min Rain = 0
KMC6 221922Z 28006KT 32/M04 A2988 RMK A01 T03231043  RH  009%=      5-min Rain = 0
KMC6 221923Z 28008KT 33/M03 A2988 RMK A01 T03251027  RH  010%=      5-min Rain = 0
KMC6 221924Z 30009KT 33/M03 A2988 RMK A01 T03271033  RH  010%=      5-min Rain = 0
KMC6 221925Z 31008KT 33/M04 A2988 RMK A01 T03271036  RH  009%=      5-min Rain = 0
KMC6 221926Z 31007KT 33/M04 A2988 RMK A01 T03271038  RH  009%=      5-min Rain = 0
KMC6 221927Z 29007KT 33/M03 A2988 RMK A01 T03261034  RH  010%=      5-min Rain = 0
KMC6 221928Z 31003KT 33/M04 A2988 RMK A01 T03261042  RH  009%=      5-min Rain = 0
KMC6 221929Z 29003KT 33/M04 A2988 RMK A01 T03261039  RH  009%=      5-min Rain = 0
KMC6 221930Z 28006KT 33/M04 A2988 RMK A01 T03261035  RH  010%=      5-min Rain = 0
KMC6 221931Z 23008KT 33/M03 A2988 RMK A01 T03281034  RH  010%=      5-min Rain = 0
KMC6 221932Z 22008KT 33/M06 A2988 RMK A01 T03281062  RH  008%=      5-min Rain = 0
KMC6 221933Z 26007KT 33/M06 A2988 RMK A01 T03251057  RH  008%=      5-min Rain = 0
KMC6 221934Z 24007KT 32/M06 A2988 RMK A01 T03241057  RH  008%=      5-min Rain = 0
KMC6 221935Z 25005KT 32/M05 A2988 RMK A01 T03241050  RH  009%=      5-min Rain = 0
KMC6 221936Z 21007KT 33/M05 A2987 RMK A01 T03251053  RH  008%=      5-min Rain = 0
KMC6 221937Z 21006KT 33/M06 A2988 RMK A01 T03261059  RH  008%=      5-min Rain = 0
KMC6 221938Z 22007KT 33/M06 A2987 RMK A01 T03251056  RH  008%=      5-min Rain = 0
KMC6 221939Z 20006KT 32/M06 A2987 RMK A01 T03241059  RH  008%=      5-min Rain = 0
KMC6 221940Z 21005KT 32/M06 A2987 RMK A01 T03231055  RH  008%=      5-min Rain = 0
KMC6 221941Z 21007KT 33/M05 A2987 RMK A01 T03251047  RH  009%=      5-min Rain = 0
KMC6 221942Z 22010KT 33/M05 A2987 RMK A01 T03281045  RH  009%=      5-min Rain = 0
KMC6 221943Z 21006KT 33/M06 A2987 RMK A01 T03281057  RH  008%=      5-min Rain = 0
KMC6 221944Z 19003G8KT 33/M06 A2987 RMK A01 T03261061  RH  008%=      5-min Rain = 0
KMC6 221945Z 22005KT 32/M06 A2987 RMK A01 T03241055  RH  008%=      5-min Rain = 0
KMC6 221946Z 20004KT 32/M05 A2987 RMK A01 T03241053  RH  008%=      5-min Rain = 0
KMC6 221947Z 25005G11KT 33/M06 A2987 RMK A01 T03251056  RH  008%=      5-min Rain = 0
KMC6 221948Z 24010KT 33/M05 A2987 RMK A01 T03261048  RH  009%=      5-min Rain = 0
KMC6 221949Z 23012G17KT 33/M05 A2987 RMK A01 T03311053  RH  008%=      5-min Rain = 0
KMC6 221950Z 23012KT 33/M05 A2987 RMK A01 T03331052  RH  008%=      5-min Rain = 0
KMC6 221951Z 22007KT 33/M06 A2987 RMK A01 T03321055  RH  008%=      5-min Rain = 0
KMC6 221952Z 21006KT 33/M05 A2987 RMK A01 T03291049  RH  009%=      5-min Rain = 0
KMC6 221953Z 22007KT 33/M05 A2987 RMK A01 T03291052  RH  008%=      5-min Rain = 0
KMC6 221954Z 25008KT 33/M04 A2987 RMK A01 T03291042  RH  009%=      5-min Rain = 0
KMC6 221955Z 25006KT 33/M04 A2987 RMK A01 T03311041  RH  009%=      5-min Rain = 0
KMC6 221956Z 24004KT 33/M04 A2987 RMK A01 T03331041  RH  009%=      5-min Rain = 0
KMC6 221957Z 21005KT 33/M05 A2987 RMK A01 T03341046  RH  008%=      5-min Rain = 0
KMC6 221958Z 16005KT 33/M05 A2987 RMK A01 T03331047  RH  008%=      5-min Rain = 0
KMC6 221959Z 15004G10KT 33/M06 A2987 RMK A01 T03311064  RH  007%=      5-min Rain = 0
KMC6 222000Z 15007KT 33/M05 A2987 RMK A01 T03291050  RH  008%=      5-min Rain = 0
KMC6 222001Z 14006KT 33/M06 A2987 RMK A01 T03301060  RH  008%=      5-min Rain = 0
KMC6 222002Z 10003KT 33/M07 A2987 RMK A01 T03271072  RH  007%=      5-min Rain = 0
KMC6 222003Z 08001KT 33/M07 A2987 RMK A01 T03251070  RH  007%=      5-min Rain = 0
KMC6 222004Z 19002KT 32/M06 A2987 RMK A01 T03241063  RH  008%=      5-min Rain = 0
KMC6 222005Z 19002KT 32/M07 A2987 RMK A01 T03241067  RH  008%=      5-min Rain = 0
KMC6 222006Z 23005G10KT 33/M04 A2987 RMK A01 T03251043  RH  009%=      5-min Rain = 0
KMC6 222007Z 22008KT 33/M05 A2987 RMK A01 T03291053  RH  008%=      5-min Rain = 0
KMC6 222008Z 26009G14KT 33/M05 A2987 RMK A01 T03321048  RH  008%=      5-min Rain = 0
KMC6 222009Z 25014KT 34/M05 A2986 RMK A01 T03361046  RH  008%=      5-min Rain = 0
KMC6 222010Z 26012KT 34/M07 A2986 RMK A01 T03361065  RH  007%=      5-min Rain = 0
KMC6 222011Z 26011KT 34/M06 A2987 RMK A01 T03351059  RH  008%=      5-min Rain = 0
KMC6 222012Z 26010KT 33/M06 A2987 RMK A01 T03341064  RH  007%=      5-min Rain = 0
KMC6 222013Z 26011KT 33/M07 A2987 RMK A01 T03321067  RH  007%=      5-min Rain = 0
KMC6 222014Z 27009KT 33/M07 A2986 RMK A01 T03301073  RH  007%=      5-min Rain = 0
KMC6 222015Z 30005KT 33/M08 A2986 RMK A01 T03271076  RH  007%=      5-min Rain = 0
KMC6 222016Z 27007KT 33/M07 A2986 RMK A01 T03271070  RH  007%=      5-min Rain = 0
KMC6 222017Z 24009KT 33/M06 A2986 RMK A01 T03281061  RH  008%=      5-min Rain = 0
KMC6 222018Z 25010KT 33/M06 A2986 RMK A01 T03301060  RH  008%=      5-min Rain = 0
KMC6 222019Z 26006KT 33/M07 A2986 RMK A01 T03301067  RH  007%=      5-min Rain = 0
KMC6 222020Z 27005KT 33/M05 A2986 RMK A01 T03311051  RH  008%=      5-min Rain = 0
KMC6 222021Z 26008KT 33/M05 A2986 RMK A01 T03321045  RH  009%=      5-min Rain = 0
KMC6 222022Z 25010KT 33/M05 A2986 RMK A01 T03341048  RH  008%=      5-min Rain = 0
KMC6 222023Z 24009KT 33/M05 A2986 RMK A01 T03341053  RH  008%=      5-min Rain = 0
KMC6 222024Z 24009KT 33/M06 A2986 RMK A01 T03321059  RH  008%=      5-min Rain = 0
KMC6 222025Z 27008KT 33/M06 A2986 RMK A01 T03311056  RH  008%=      5-min Rain = 0
KMC6 222026Z 29009KT 33/M05 A2986 RMK A01 T03311047  RH  009%=      5-min Rain = 0
KMC6 222027Z 26006KT 33/M06 A2986 RMK A01 T03331058  RH  008%=      5-min Rain = 0
KMC6 222028Z 26008KT 33/M05 A2986 RMK A01 T03311051  RH  008%=      5-min Rain = 0
KMC6 222029Z 27008KT 33/M06 A2986 RMK A01 T03321059  RH  008%=      5-min Rain = 0
KMC6 222030Z 27006KT 33/M07 A2986 RMK A01 T03301068  RH  007%=      5-min Rain = 0
KMC6 222031Z 20002KT 33/M07 A2986 RMK A01 T03281070  RH  007%=      5-min Rain = 0
KMC6 222032Z 20005KT 33/M05 A2986 RMK A01 T03281052  RH  008%=      5-min Rain = 0
KMC6 222033Z 21004KT 33/M05 A2986 RMK A01 T03301048  RH  009%=      5-min Rain = 0
KMC6 222034Z 24003KT 33/M06 A2986 RMK A01 T03311055  RH  008%=      5-min Rain = 0
KMC6 222035Z 27005KT 33/M04 A2986 RMK A01 T03321040  RH  009%=      5-min Rain = 0
KMC6 222036Z 26006KT 33/M06 A2986 RMK A01 T03341058  RH  008%=      5-min Rain = 0
KMC6 222037Z 28003KT 33/M07 A2986 RMK A01 T03321066  RH  007%=      5-min Rain = 0
KMC6 222038Z 30004KT 33/M06 A2985 RMK A01 T03311064  RH  008%=      5-min Rain = 0
KMC6 222039Z 32002KT 33/M06 A2985 RMK A01 T03321057  RH  008%=      5-min Rain = 0
KMC6 222040Z 35002KT 33/M06 A2985 RMK A01 T03341060  RH  008%=      5-min Rain = 0
KMC6 222041Z 30003KT 34/M07 A2985 RMK A01 T03351069  RH  007%=      5-min Rain = 0
KMC6 222042Z 28009KT 34/M05 A2985 RMK A01 T03351045  RH  008%=      5-min Rain = 0
KMC6 222043Z 27009KT 34/M04 A2985 RMK A01 T03371035  RH  009%=      5-min Rain = 0
KMC6 222044Z 26009KT 34/M05 A2985 RMK A01 T03381046  RH  008%=      5-min Rain = 0
KMC6 222045Z 27012G18KT 34/M04 A2985 RMK A01 T03371036  RH  009%=      5-min Rain = 0
KMC6 222046Z 26015KT 34/M04 A2985 RMK A01 T03391039  RH  009%=      5-min Rain = 0
KMC6 222047Z 27009KT 34/M05 A2985 RMK A01 T03371045  RH  008%=      5-min Rain = 0
KMC6 222048Z 27011KT 34/M03 A2985 RMK A01 T03361029  RH  009%=      5-min Rain = 0
KMC6 222049Z 27011KT 34/M03 A2985 RMK A01 T03391033  RH  009%=      5-min Rain = 0
KMC6 222050Z 27010KT 34/M03 A2985 RMK A01 T03391033  RH  009%=      5-min Rain = 0
KMC6 222051Z 28009KT 34/M04 A2985 RMK A01 T03391038  RH  009%=      5-min Rain = 0
KMC6 222052Z 27007KT 34/M05 A2985 RMK A01 T03381049  RH  008%=      5-min Rain = 0
KMC6 222053Z 29008KT 34/M04 A2985 RMK A01 T03361037  RH  009%=      5-min Rain = 0
KMC6 222054Z 29007KT 34/M04 A2985 RMK A01 T03371040  RH  009%=      5-min Rain = 0
KMC6 222055Z 27006KT 34/M04 A2985 RMK A01 T03371035  RH  009%=      5-min Rain = 0
KMC6 222056Z 27009KT 34/M03 A2985 RMK A01 T03401029  RH  009%=      5-min Rain = 0
KMC6 222057Z 27008KT 34/M05 A2985 RMK A01 T03401046  RH  008%=      5-min Rain = 0
KMC6 222058Z 27008KT 34/M04 A2985 RMK A01 T03371036  RH  009%=      5-min Rain = 0
KMC6 222059Z 25008KT 34/M04 A2985 RMK A01 T03371042  RH  009%=      5-min Rain = 0
KMC6 222100Z 24009G14KT 34/M05 A2985 RMK A01 T03361053  RH  008%=      5-min Rain = 0
KMC6 222101Z 24012KT 34/M05 A2985 RMK A01 T03351051  RH  008%=      5-min Rain = 0
KMC6 222102Z 24010KT 34/M06 A2985 RMK A01 T03351062  RH  007%=      5-min Rain = 0
KMC6 222103Z 23009KT 33/M05 A2985 RMK A01 T03341052  RH  008%=      5-min Rain = 0
KMC6 222104Z 23005KT 33/M07 A2984 RMK A01 T03341068  RH  007%=      5-min Rain = 0
KMC6 222105Z 23009KT 33/M06 A2984 RMK A01 T03321058  RH  008%=      5-min Rain = 0
KMC6 222106Z 24006KT 33/M07 A2984 RMK A01 T03331069  RH  007%=      5-min Rain = 0
KMC6 222107Z 24004KT 33/M06 A2984 RMK A01 T03311062  RH  008%=      5-min Rain = 0
KMC6 222108Z 22004KT 33/M06 A2984 RMK A01 T03321062  RH  008%=      5-min Rain = 0
KMC6 222109Z 20012G17KT 33/M06 A2984 RMK A01 T03341055  RH  008%=      5-min Rain = 0
KMC6 222110Z 19011KT 34/M05 A2984 RMK A01 T03411048  RH  008%=      5-min Rain = 0
KMC6 222111Z 20010KT 34/M05 A2984 RMK A01 T03411051  RH  008%=      5-min Rain = 0
KMC6 222112Z 23012KT 34/M05 A2984 RMK A01 T03411052  RH  008%=      5-min Rain = 0
KMC6 222113Z 22010G16KT 34/M05 A2984 RMK A01 T03381053  RH  008%=      5-min Rain = 0
KMC6 222114Z 20012KT 34/M05 A2984 RMK A01 T03381052  RH  008%=      5-min Rain = 0
KMC6 222115Z 21010KT 34/M05 A2984 RMK A01 T03381049  RH  008%=      5-min Rain = 0
KMC6 222116Z 21014G19KT 34/M05 A2984 RMK A01 T03411047  RH  008%=      5-min Rain = 0
KMC6 222117Z 22013KT 34/M06 A2984 RMK A01 T03411060  RH  007%=      5-min Rain = 0
KMC6 222118Z 20014KT 34/M06 A2984 RMK A01 T03381056  RH  008%=      5-min Rain = 0
KMC6 222119Z 22009KT 34/M05 A2984 RMK A01 T03381054  RH  008%=      5-min Rain = 0
KMC6 222120Z 22007KT 34/M05 A2984 RMK A01 T03391054  RH  008%=      5-min Rain = 0
KMC6 222121Z 21009G15KT 34/M06 A2984 RMK A01 T03371057  RH  008%=      5-min Rain = 0
KMC6 222122Z 19013KT 34/M06 A2984 RMK A01 T03371055  RH  008%=      5-min Rain = 0
KMC6 222123Z 19011KT 34/M06 A2984 RMK A01 T03391058  RH  007%=      5-min Rain = 0
KMC6 222124Z 17011KT 34/M06 A2984 RMK A01 T03381057  RH  008%=      5-min Rain = 0
KMC6 222125Z 16008KT 34/M06 A2984 RMK A01 T03361057  RH  008%=      5-min Rain = 0
KMC6 222126Z 16006KT 34/M05 A2984 RMK A01 T03361047  RH  008%=      5-min Rain = 0
KMC6 222127Z 17007KT 34/M06 A2984 RMK A01 T03371058  RH  008%=      5-min Rain = 0
KMC6 222128Z 20011KT 34/M05 A2984 RMK A01 T03371047  RH  008%=      5-min Rain = 0
KMC6 222129Z 21007KT 34/M06 A2984 RMK A01 T03391056  RH  008%=      5-min Rain = 0
KMC6 222130Z 23007KT 34/M06 A2984 RMK A01 T03371058  RH  008%=      5-min Rain = 0
KMC6 222131Z 22005KT 34/M06 A2984 RMK A01 T03361062  RH  007%=      5-min Rain = 0
KMC6 222132Z 22007KT 33/M06 A2983 RMK A01 T03341057  RH  008%=      5-min Rain = 0
KMC6 222133Z 24011KT 34/M06 A2983 RMK A01 T03361057  RH  008%=      5-min Rain = 0
KMC6 222134Z 22012G18KT 34/M06 A2983 RMK A01 T03381057  RH  008%=      5-min Rain = 0
KMC6 222135Z 22016KT 34/M05 A2983 RMK A01 T03401054  RH  008%=      5-min Rain = 0
KMC6 222136Z 23012KT 34/M06 A2983 RMK A01 T03411063  RH  007%=      5-min Rain = 0
KMC6 222137Z 24011KT 34/M06 A2983 RMK A01 T03371059  RH  008%=      5-min Rain = 0
KMC6 222138Z 24013G18KT 34/M05 A2983 RMK A01 T03361051  RH  008%=      5-min Rain = 0
KMC6 222139Z 21012G17KT 34/M05 A2983 RMK A01 T03401046  RH  008%=      5-min Rain = 0
KMC6 222140Z 21011G16KT 34/M05 A2983 RMK A01 T03421054  RH  008%=      5-min Rain = 0
KMC6 222141Z 22008KT 34/M06 A2983 RMK A01 T03411055  RH  008%=      5-min Rain = 0
KMC6 222142Z 23007KT 34/M06 A2983 RMK A01 T03381059  RH  007%=      5-min Rain = 0
KMC6 222143Z 22008KT 34/M05 A2983 RMK A01 T03371050  RH  008%=      5-min Rain = 0
KMC6 222144Z 22008KT 34/M06 A2983 RMK A01 T03371057  RH  008%=      5-min Rain = 0
KMC6 222145Z 21010G16KT 34/M06 A2983 RMK A01 T03361055  RH  008%=      5-min Rain = 0
KMC6 222146Z 23012G17KT 34/M06 A2983 RMK A01 T03371059  RH  008%=      5-min Rain = 0
KMC6 222147Z 23011KT 34/M06 A2983 RMK A01 T03371058  RH  008%=      5-min Rain = 0
KMC6 222148Z 24011KT 34/M05 A2983 RMK A01 T03391046  RH  008%=      5-min Rain = 0
KMC6 222149Z 24012KT 34/M05 A2983 RMK A01 T03411049  RH  008%=      5-min Rain = 0
KMC6 222150Z 25012G17KT 34/M05 A2983 RMK A01 T03381047  RH  008%=      5-min Rain = 0
KMC6 222151Z 24012KT 34/M05 A2983 RMK A01 T03371047  RH  008%=      5-min Rain = 0
KMC6 222152Z 20008KT 33/M05 A2983 RMK A01 T03341054  RH  008%=      5-min Rain = 0
KMC6 222153Z 19005KT 33/M05 A2983 RMK A01 T03331048  RH  008%=      5-min Rain = 0
KMC6 222154Z 22008KT 33/M04 A2983 RMK A01 T03341043  RH  009%=      5-min Rain = 0
KMC6 222155Z 25010KT 34/M05 A2982 RMK A01 T03371046  RH  008%=      5-min Rain = 0
KMC6 222156Z 26012KT 34/M04 A2982 RMK A01 T03411037  RH  009%=      5-min Rain = 0
KMC6 222157Z 26011KT 34/M04 A2982 RMK A01 T03421040  RH  008%=      5-min Rain = 0
KMC6 222158Z 27012KT 34/M05 A2982 RMK A01 T03421045  RH  008%=      5-min Rain = 0
KMC6 222159Z 27010KT 34/M04 A2982 RMK A01 T03421037  RH  009%=      5-min Rain = 0
KMC6 222200Z 25010KT 34/M04 A2982 RMK A01 T03431043  RH  008%=      5-min Rain = 0
KMC6 222201Z 26008KT 34/M06 A2982 RMK A01 T03411064  RH  007%=      5-min Rain = 0
KMC6 222202Z 25006KT 34/M06 A2982 RMK A01 T03371056  RH  008%=      5-min Rain = 0
KMC6 222203Z 26006KT 34/M05 A2982 RMK A01 T03371047  RH  008%=      5-min Rain = 0
KMC6 222204Z 24006KT 34/M05 A2982 RMK A01 T03381053  RH  008%=      5-min Rain = 0
KMC6 222205Z 24008G13KT 34/M05 A2982 RMK A01 T03401045  RH  008%=      5-min Rain = 0
KMC6 222206Z 27011KT 34/M05 A2982 RMK A01 T03431045  RH  008%=      5-min Rain = 0
KMC6 222207Z 26008KT 34/M05 A2982 RMK A01 T03431050  RH  008%=      5-min Rain = 0
KMC6 222208Z 25005KT 34/M05 A2982 RMK A01 T03411045  RH  008%=      5-min Rain = 0
KMC6 222209Z 26007KT 34/M05 A2982 RMK A01 T03411049  RH  008%=      5-min Rain = 0
KMC6 222210Z 25006KT 34/M05 A2982 RMK A01 T03411049  RH  008%=      5-min Rain = 0
KMC6 222211Z 24006KT 34/M06 A2982 RMK A01 T03391055  RH  008%=      5-min Rain = 0
KMC6 222212Z 22009KT 34/M04 A2982 RMK A01 T03371044  RH  008%=      5-min Rain = 0
KMC6 222213Z 22013KT 34/M03 A2982 RMK A01 T03401030  RH  009%=      5-min Rain = 0
KMC6 222214Z 22014KT 34/M03 A2982 RMK A01 T03421033  RH  009%=      5-min Rain = 0
KMC6 222215Z 22012KT 34/M04 A2982 RMK A01 T03411037  RH  009%=      5-min Rain = 0
KMC6 222216Z 24012KT 34/M04 A2982 RMK A01 T03391038  RH  009%=      5-min Rain = 0
KMC6 222217Z 25009KT 34/M04 A2982 RMK A01 T03361043  RH  009%=      5-min Rain = 0
KMC6 222218Z 22007KT 33/M04 A2982 RMK A01 T03331042  RH  009%=      5-min Rain = 0
KMC6 222219Z 24012KT 33/M03 A2982 RMK A01 T03341027  RH  010%=      5-min Rain = 0
KMC6 222220Z 25013KT 34/M03 A2982 RMK A01 T03401029  RH  009%=      5-min Rain = 0
KMC6 222221Z 25012KT 34/M03 A2982 RMK A01 T03401028  RH  009%=      5-min Rain = 0
KMC6 222222Z 24013KT 34/M04 A2982 RMK A01 T03411035  RH  009%=      5-min Rain = 0
KMC6 222223Z 23012KT 34/M04 A2982 RMK A01 T03381039  RH  009%=      5-min Rain = 0
KMC6 222224Z 23012KT 34/M03 A2982 RMK A01 T03371032  RH  009%=      5-min Rain = 0
KMC6 222225Z 25011KT 34/M02 A2982 RMK A01 T03371024  RH  010%=      5-min Rain = 0
KMC6 222226Z 24008KT 34/M03 A2982 RMK A01 T03371033  RH  009%=      5-min Rain = 0
KMC6 222227Z 23006KT 34/M03 A2982 RMK A01 T03371030  RH  009%=      5-min Rain = 0
KMC6 222228Z 23008KT 34/M03 A2982 RMK A01 T03371030  RH  009%=      5-min Rain = 0
KMC6 222229Z 26009KT 34/M03 A2982 RMK A01 T03401033  RH  009%=      5-min Rain = 0
KMC6 222230Z 24010KT 34/M04 A2982 RMK A01 T03401035  RH  009%=      5-min Rain = 0
KMC6 222231Z 25014KT 34/M03 A2982 RMK A01 T03411034  RH  009%=      5-min Rain = 0
KMC6 222232Z 25014KT 34/M04 A2982 RMK A01 T03431037  RH  009%=      5-min Rain = 0
KMC6 222233Z 24010KT 34/M04 A2982 RMK A01 T03411042  RH  008%=      5-min Rain = 0
KMC6 222234Z 24010G15KT 34/M05 A2982 RMK A01 T03391048  RH  008%=      5-min Rain = 0
KMC6 222235Z 23013KT 34/M04 A2982 RMK A01 T03391036  RH  009%=      5-min Rain = 0
KMC6 222236Z 24012KT 34/M03 A2982 RMK A01 T03401031  RH  009%=      5-min Rain = 0
KMC6 222237Z 24008G13KT 34/M03 A2982 RMK A01 T03401033  RH  009%=      5-min Rain = 0
KMC6 222238Z 25009G14KT 34/M03 A2982 RMK A01 T03381030  RH  009%=      5-min Rain = 0
KMC6 222239Z 26010KT 34/M04 A2982 RMK A01 T03371037  RH  009%=      5-min Rain = 0
KMC6 222240Z 26011KT 34/M04 A2982 RMK A01 T03371035  RH  009%=      5-min Rain = 0
KMC6 222241Z 26009KT 34/M03 A2982 RMK A01 T03371034  RH  009%=      5-min Rain = 0
KMC6 222242Z 26007KT 34/M04 A2982 RMK A01 T03371037  RH  009%=      5-min Rain = 0
KMC6 222243Z 25004KT 34/M04 A2982 RMK A01 T03351044  RH  009%=      5-min Rain = 0
KMC6 222244Z 23006KT 34/M04 A2982 RMK A01 T03351039  RH  009%=      5-min Rain = 0
KMC6 222245Z 23009KT 34/M04 A2981 RMK A01 T03351043  RH  009%=      5-min Rain = 0
KMC6 222246Z 23007KT 34/M04 A2981 RMK A01 T03351043  RH  009%=      5-min Rain = 0
KMC6 222247Z 23007KT 34/M04 A2981 RMK A01 T03351037  RH  009%=      5-min Rain = 0
KMC6 222248Z 24007KT 34/M04 A2981 RMK A01 T03371036  RH  009%=      5-min Rain = 0
KMC6 222249Z 22007KT 34/M03 A2981 RMK A01 T03371033  RH  009%=      5-min Rain = 0
KMC6 222250Z 20011KT 34/M02 A2981 RMK A01 T03381021  RH  010%=      5-min Rain = 0
KMC6 222251Z 20007KT 34/M02 A2981 RMK A01 T03391017  RH  010%=      5-min Rain = 0
KMC6 222252Z 20005KT 34/M02 A2981 RMK A01 T03381020  RH  010%=      5-min Rain = 0
KMC6 222253Z 20005KT 34/M02 A2981 RMK A01 T03351019  RH  010%=      5-min Rain = 0
KMC6 222254Z 21006KT 34/M02 A2981 RMK A01 T03351020  RH  010%=      5-min Rain = 0
KMC6 222255Z 18006KT 34/M02 A2981 RMK A01 T03351020  RH  010%=      5-min Rain = 0
KMC6 222256Z 17006KT 34/M02 A2981 RMK A01 T03361017  RH  010%=      5-min Rain = 0
KMC6 222257Z 17005KT 34/M02 A2981 RMK A01 T03361021  RH  010%=      5-min Rain = 0
KMC6 222258Z 20006KT 34/M02 A2981 RMK A01 T03351017  RH  010%=      5-min Rain = 0
KMC6 222259Z 23008KT 34/M03 A2981 RMK A01 T03351028  RH  010%=      5-min Rain = 0
KMC6 222300Z 22006KT 34/M04 A2981 RMK A01 T03361035  RH  009%=      5-min Rain = 0
KMC6 222301Z 24003KT 34/M03 A2981 RMK A01 T03351030  RH  009%=      5-min Rain = 0
KMC6 222302Z 25004G10KT 34/M01 A2981 RMK A01 T03361008  RH  011%=      5-min Rain = 0
KMC6 222303Z 24009KT 34/M03 A2981 RMK A01 T03381029  RH  009%=      5-min Rain = 0
KMC6 222304Z 25008KT 34/M03 A2981 RMK A01 T03371033  RH  009%=      5-min Rain = 0
KMC6 222305Z 24009KT 34/M03 A2981 RMK A01 T03351029  RH  010%=      5-min Rain = 0
KMC6 222306Z 24007KT 33/M03 A2981 RMK A01 T03341032  RH  009%=      5-min Rain = 0
KMC6 222307Z 23006KT 33/M03 A2981 RMK A01 T03331033  RH  009%=      5-min Rain = 0
KMC6 222308Z 18004KT 33/M04 A2981 RMK A01 T03331037  RH  009%=      5-min Rain = 0
KMC6 222309Z 16004KT 33/M04 A2981 RMK A01 T03321039  RH  009%=      5-min Rain = 0
KMC6 222310Z 15001KT 33/M04 A2981 RMK A01 T03321043  RH  009%=      5-min Rain = 0
KMC6 222311Z 18001KT 33/M04 A2981 RMK A01 T03321038  RH  009%=      5-min Rain = 0
KMC6 222312Z 16002KT 33/M03 A2981 RMK A01 T03321030  RH  010%=      5-min Rain = 0
KMC6 222313Z 15005KT 33/M02 A2981 RMK A01 T03341021  RH  010%=      5-min Rain = 0
KMC6 222314Z 16003KT 34/M03 A2981 RMK A01 T03351034  RH  009%=      5-min Rain = 0
KMC6 222315Z 26005KT 34/M03 A2981 RMK A01 T03351029  RH  010%=      5-min Rain = 0
KMC6 222316Z 27003KT 34/M03 A2981 RMK A01 T03351033  RH  009%=      5-min Rain = 0
KMC6 222317Z 29000KT 34/M04 A2981 RMK A01 T03351041  RH  009%=      5-min Rain = 0
KMC6 222318Z 25000KT 33/M04 A298 RMK A01 T03341041  RH  009%=      5-min Rain = 0
KMC6 222319Z 27002KT 34/M02 A298 RMK A01 T03351020  RH  010%=      5-min Rain = 0
KMC6 222320Z 25002KT 34/M03 A298 RMK A01 T03361028  RH  010%=      5-min Rain = 0
KMC6 222321Z 27002KT 34/M03 A298 RMK A01 T03371030  RH  009%=      5-min Rain = 0
KMC6 222322Z 25002KT 34/M02 A298 RMK A01 T03371023  RH  010%=      5-min Rain = 0
KMC6 222323Z 24004KT 34/M03 A298 RMK A01 T03381025  RH  010%=      5-min Rain = 0
KMC6 222324Z 23007KT 34/M02 A298 RMK A01 T03371016  RH  010%=      5-min Rain = 0
KMC6 222325Z 26008KT 34/M00 A298 RMK A01 T03381003  RH  011%=      5-min Rain = 0
KMC6 222326Z 25007KT 34/M01 A298 RMK A01 T03371005  RH  011%=      5-min Rain = 0
KMC6 222327Z 27007KT 34/M00 A298 RMK A01 T03371003  RH  011%=      5-min Rain = 0
KMC6 222328Z 26007KT 34/M01 A298 RMK A01 T03361008  RH  011%=      5-min Rain = 0
KMC6 222329Z 25008KT 34/M01 A298 RMK A01 T03361006  RH  011%=      5-min Rain = 0
KMC6 222330Z 24006KT 34/M01 A298 RMK A01 T03361011  RH  011%=      5-min Rain = 0
KMC6 222331Z 26005KT 34/M01 A298 RMK A01 T03351014  RH  011%=      5-min Rain = 0
KMC6 222332Z 25004KT 33/M00 A298 RMK A01 T03341004  RH  012%=      5-min Rain = 0
KMC6 222333Z 24005KT 34/M00 A298 RMK A01 T03351003  RH  012%=      5-min Rain = 0
KMC6 222334Z 24006KT 34/M02 A298 RMK A01 T03351019  RH  010%=      5-min Rain = 0
KMC6 222335Z 24005KT 33/M01 A298 RMK A01 T03341012  RH  011%=      5-min Rain = 0
KMC6 222336Z 20005KT 33/M01 A298 RMK A01 T03331008  RH  011%=      5-min Rain = 0
KMC6 222337Z 20005KT 33/M00 A298 RMK A01 T03341003  RH  012%=      5-min Rain = 0
KMC6 222338Z 22006KT 34/M00 A298 RMK A01 T03351003  RH  012%=      5-min Rain = 0
KMC6 222339Z 22005KT 34/M01 A298 RMK A01 T03351010  RH  011%=      5-min Rain = 0
KMC6 222340Z 21005KT 33/M01 A2979 RMK A01 T03331005  RH  012%=      5-min Rain = 0
KMC6 222341Z 23004KT 33/M01 A2979 RMK A01 T03331006  RH  011%=      5-min Rain = 0
KMC6 222342Z 21005KT 33/M00 A2979 RMK A01 T03341002  RH  012%=      5-min Rain = 0
KMC6 222343Z 22004KT 33/M01 A2979 RMK A01 T03341007  RH  011%=      5-min Rain = 0
KMC6 222344Z 24005KT 33/M01 A2979 RMK A01 T03341006  RH  011%=      5-min Rain = 0
KMC6 222345Z 24007KT 33/M01 A2979 RMK A01 T03341009  RH  011%=      5-min Rain = 0
KMC6 222346Z 25007KT 33/M01 A2979 RMK A01 T03341005  RH  011%=      5-min Rain = 0
KMC6 222347Z 25006KT 33/M01 A2979 RMK A01 T03341005  RH  011%=      5-min Rain = 0
KMC6 222348Z 25005KT 33/M00 A2979 RMK A01 T03331003  RH  012%=      5-min Rain = 0
KMC6 222349Z 25006KT 33/M00 A2979 RMK A01 T03331003  RH  012%=      5-min Rain = 0
KMC6 222350Z 22005KT 33/M00 A2979 RMK A01 T03341002  RH  012%=      5-min Rain = 0
KMC6 222351Z 23005KT 33/00 A2979 RMK A01 T03340001  RH  012%=      5-min Rain = 0
KMC6 222352Z 25007KT 34/M01 A2979 RMK A01 T03351008  RH  011%=      5-min Rain = 0
KMC6 222353Z 24007KT 33/00 A2979 RMK A01 T03340000  RH  012%=      5-min Rain = 0
KMC6 222354Z 23007KT 33/M01 A2979 RMK A01 T03341009  RH  011%=      5-min Rain = 0
KMC6 222355Z 24005KT 33/M01 A2979 RMK A01 T03331010  RH  011%=      5-min Rain = 0
KMC6 222356Z 23005KT 33/M01 A2979 RMK A01 T03321013  RH  011%=      5-min Rain = 0
KMC6 222357Z 22006KT 33/M01 A2979 RMK A01 T03321009  RH  011%=      5-min Rain = 0
KMC6 222358Z 22006KT 33/M01 A2979 RMK A01 T03321011  RH  011%=      5-min Rain = 0
KMC6 222359Z 21005KT 33/M01 A2979 RMK A01 T03321007  RH  011%=      5-min Rain = 0
KMC6 230000Z 20004KT 33/M01 A2979 RMK A01 T03321007  RH  011%=      5-min Rain = 0
KMC6 230001Z 19003KT 33/M01 A2979 RMK A01 T03321005  RH  012%=      5-min Rain = 0
KMC6 230002Z 20004KT 33/M01 A2979 RMK A01 T03321011  RH  011%=      5-min Rain = 0
KMC6 230003Z 19004KT 33/M01 A2979 RMK A01 T03311007  RH  011%=      5-min Rain = 0
KMC6 230004Z 19005KT 33/M01 A2979 RMK A01 T03321005  RH  012%=      5-min Rain = 0
KMC6 230005Z 19005KT 33/M01 A2979 RMK A01 T03321012  RH  011%=      5-min Rain = 0
KMC6 230006Z 18005KT 33/M01 A2979 RMK A01 T03311006  RH  012%=      5-min Rain = 0
KMC6 230007Z 19006KT 33/M00 A2979 RMK A01 T03311004  RH  012%=      5-min Rain = 0
KMC6 230008Z 19002KT 33/M01 A2979 RMK A01 T03301014  RH  011%=      5-min Rain = 0
KMC6 230009Z 16002KT 33/M01 A2979 RMK A01 T03301007  RH  012%=      5-min Rain = 0
KMC6 230010Z 16002KT 33/M01 A2979 RMK A01 T03301010  RH  011%=      5-min Rain = 0
KMC6 230011Z 16002KT 33/M01 A2979 RMK A01 T03301011  RH  011%=      5-min Rain = 0
KMC6 230012Z 16003KT 33/M01 A2979 RMK A01 T03301011  RH  011%=      5-min Rain = 0
KMC6 230013Z 17004KT 33/M00 A2979 RMK A01 T03301002  RH  012%=      5-min Rain = 0
KMC6 230014Z 19004KT 33/M00 A2979 RMK A01 T03301003  RH  012%=      5-min Rain = 0
KMC6 230015Z 21004KT 33/M01 A2979 RMK A01 T03311008  RH  011%=      5-min Rain = 0
KMC6 230016Z 21003KT 33/M01 A2979 RMK A01 T03301009  RH  011%=      5-min Rain = 0
KMC6 230017Z 19004KT 33/M01 A2979 RMK A01 T03301006  RH  012%=      5-min Rain = 0
KMC6 230018Z 21001KT 33/01 A2979 RMK A01 T03300006  RH  013%=      5-min Rain = 0
KMC6 230019Z 20004KT 33/00 A2979 RMK A01 T03300004  RH  013%=      5-min Rain = 0
KMC6 230020Z 21004KT 33/M00 A2979 RMK A01 T03311004  RH  012%=      5-min Rain = 0
KMC6 230021Z 23004KT 33/M00 A2979 RMK A01 T03311002  RH  012%=      5-min Rain = 0
KMC6 230022Z 22003KT 33/00 A2979 RMK A01 T03310001  RH  012%=      5-min Rain = 0
KMC6 230023Z 23004KT 33/00 A2979 RMK A01 T03310003  RH  012%=      5-min Rain = 0
KMC6 230024Z 21004KT 33/M00 A2979 RMK A01 T03311004  RH  012%=      5-min Rain = 0
KMC6 230025Z 22003KT 33/M01 A2979 RMK A01 T03301007  RH  012%=      5-min Rain = 0
KMC6 230026Z 22002KT 33/00 A2979 RMK A01 T03300001  RH  012%=      5-min Rain = 0
KMC6 230027Z 20004KT 33/00 A2979 RMK A01 T03290001  RH  012%=      5-min Rain = 0
KMC6 230028Z 20002KT 33/M01 A2979 RMK A01 T03291009  RH  011%=      5-min Rain = 0
KMC6 230029Z 19003KT 33/M01 A2979 RMK A01 T03291006  RH  012%=      5-min Rain = 0
KMC6 230030Z 19002KT 33/M01 A2979 RMK A01 T03291006  RH  012%=      5-min Rain = 0
KMC6 230031Z 18002KT 33/M00 A2979 RMK A01 T03291004  RH  012%=      5-min Rain = 0
KMC6 230032Z 18003KT 33/00 A2979 RMK A01 T03290003  RH  013%=      5-min Rain = 0
KMC6 230033Z 16004KT 33/01 A2979 RMK A01 T03280011  RH  013%=      5-min Rain = 0
KMC6 230034Z 15005KT 33/02 A2979 RMK A01 T03280020  RH  014%=      5-min Rain = 0
KMC6 230035Z 14005KT 33/01 A2979 RMK A01 T03270013  RH  014%=      5-min Rain = 0
KMC6 230036Z 15004KT 33/01 A2979 RMK A01 T03270014  RH  014%=      5-min Rain = 0
KMC6 230037Z 15004KT 33/01 A2979 RMK A01 T03270014  RH  014%=      5-min Rain = 0
KMC6 230038Z 16003KT 33/01 A2979 RMK A01 T03260012  RH  014%=      5-min Rain = 0
KMC6 230039Z 17003KT 33/01 A2979 RMK A01 T03260011  RH  013%=      5-min Rain = 0
KMC6 230040Z 15004KT 33/01 A2979 RMK A01 T03260010  RH  013%=      5-min Rain = 0
KMC6 230041Z 16003KT 33/02 A2979 RMK A01 T03260017  RH  014%=      5-min Rain = 0
KMC6 230042Z 15003KT 33/02 A2979 RMK A01 T03250022  RH  015%=      5-min Rain = 0
KMC6 230043Z 15004KT 33/02 A2979 RMK A01 T03250023  RH  015%=      5-min Rain = 0
KMC6 230044Z 15005KT 32/01 A2979 RMK A01 T03240013  RH  014%=      5-min Rain = 0
KMC6 230045Z 16006KT 32/01 A2979 RMK A01 T03230014  RH  014%=      5-min Rain = 0
KMC6 230046Z 16007KT 32/02 A2979 RMK A01 T03230022  RH  015%=      5-min Rain = 0
KMC6 230047Z 15005KT 32/03 A2979 RMK A01 T03210027  RH  015%=      5-min Rain = 0
KMC6 230048Z 17005KT 32/04 A2979 RMK A01 T03210035  RH  016%=      5-min Rain = 0
KMC6 230049Z 17006KT 32/03 A2979 RMK A01 T03210026  RH  015%=      5-min Rain = 0
KMC6 230050Z 16004KT 32/02 A2979 RMK A01 T03200024  RH  015%=      5-min Rain = 0
KMC6 230051Z 16006KT 32/03 A2979 RMK A01 T03190028  RH  016%=      5-min Rain = 0
KMC6 230052Z 17005KT 32/03 A2979 RMK A01 T03180030  RH  016%=      5-min Rain = 0
KMC6 230053Z 17005KT 32/04 A2979 RMK A01 T03170043  RH  018%=      5-min Rain = 0
KMC6 230054Z 17005KT 32/05 A2979 RMK A01 T03170049  RH  019%=      5-min Rain = 0
KMC6 230055Z 18004KT 32/05 A2979 RMK A01 T03170049  RH  018%=      5-min Rain = 0
KMC6 230056Z 17005KT 32/05 A2979 RMK A01 T03180051  RH  019%=      5-min Rain = 0
KMC6 230057Z 17005KT 32/05 A2979 RMK A01 T03180052  RH  019%=      5-min Rain = 0
KMC6 230058Z 16005KT 32/06 A2979 RMK A01 T03190056  RH  019%=      5-min Rain = 0
KMC6 230059Z 15004KT 32/06 A2979 RMK A01 T03190057  RH  019%=      5-min Rain = 0
KMC6 230100Z 16003KT 32/06 A2979 RMK A01 T03180056  RH  019%=      5-min Rain = 0
KMC6 230101Z 17003KT 32/06 A2979 RMK A01 T03180057  RH  020%=      5-min Rain = 0
KMC6 230102Z 16003KT 32/06 A2979 RMK A01 T03170056  RH  019%=      5-min Rain = 0
KMC6 230103Z 16004KT 32/05 A2979 RMK A01 T03170052  RH  019%=      5-min Rain = 0
KMC6 230104Z 15005KT 32/05 A2979 RMK A01 T03170053  RH  019%=      5-min Rain = 0
KMC6 230105Z 15004KT 32/06 A2979 RMK A01 T03170059  RH  020%=      5-min Rain = 0
KMC6 230106Z 16004KT 32/06 A2979 RMK A01 T03160061  RH  020%=      5-min Rain = 0
KMC6 230107Z 16004KT 32/07 A2979 RMK A01 T03150068  RH  021%=      5-min Rain = 0
KMC6 230108Z 15007KT 31/08 A2979 RMK A01 T03140075  RH  023%=      5-min Rain = 0
KMC6 230109Z 16006KT 31/08 A2979 RMK A01 T03140076  RH  023%=      5-min Rain = 0
KMC6 230110Z 17005KT 31/07 A2979 RMK A01 T03140074  RH  022%=      5-min Rain = 0
KMC6 230111Z 18006KT 31/08 A2979 RMK A01 T03140076  RH  023%=      5-min Rain = 0
KMC6 230112Z 19007KT 31/08 A2979 RMK A01 T03130080  RH  023%=      5-min Rain = 0
KMC6 230113Z 20006KT 31/08 A2979 RMK A01 T03120077  RH  023%=      5-min Rain = 0
KMC6 230114Z 20006KT 31/08 A2979 RMK A01 T03110075  RH  023%=      5-min Rain = 0
KMC6 230115Z 20005KT 31/07 A2979 RMK A01 T03110074  RH  023%=      5-min Rain = 0
KMC6 230116Z 19005KT 31/07 A2979 RMK A01 T03120074  RH  023%=      5-min Rain = 0
KMC6 230117Z 19005KT 31/08 A2979 RMK A01 T03120076  RH  023%=      5-min Rain = 0
KMC6 230118Z 19005KT 31/08 A2979 RMK A01 T03120077  RH  023%=      5-min Rain = 0
KMC6 230119Z 18005KT 31/08 A2979 RMK A01 T03110077  RH  023%=      5-min Rain = 0
KMC6 230120Z 17005KT 31/08 A2979 RMK A01 T03110078  RH  023%=      5-min Rain = 0
KMC6 230121Z 17004KT 31/08 A2979 RMK A01 T03100079  RH  024%=      5-min Rain = 0
KMC6 230122Z 16004KT 31/08 A2979 RMK A01 T03090080  RH  024%=      5-min Rain = 0
KMC6 230123Z 16004KT 31/08 A2979 RMK A01 T03080083  RH  025%=      5-min Rain = 0
KMC6 230124Z 16005KT 31/09 A2979 RMK A01 T03070085  RH  025%=      5-min Rain = 0
KMC6 230125Z 17004KT 31/09 A2979 RMK A01 T03050087  RH  026%=      5-min Rain = 0
KMC6 230126Z 17004KT 30/09 A2979 RMK A01 T03030088  RH  026%=      5-min Rain = 0
KMC6 230127Z 17004KT 30/09 A2979 RMK A01 T03010088  RH  026%=      5-min Rain = 0
KMC6 230128Z 17004KT 30/09 A2979 RMK A01 T03000088  RH  027%=      5-min Rain = 0
KMC6 230129Z 17004KT 30/09 A2979 RMK A01 T02980088  RH  027%=      5-min Rain = 0
KMC6 230130Z 16004KT 30/09 A2979 RMK A01 T02970088  RH  027%=      5-min Rain = 0
KMC6 230131Z 16004KT 30/09 A2979 RMK A01 T02960088  RH  027%=      5-min Rain = 0
KMC6 230132Z 16005KT 30/09 A2979 RMK A01 T02950088  RH  027%=      5-min Rain = 0
KMC6 230133Z 15005KT 29/09 A2979 RMK A01 T02940088  RH  028%=      5-min Rain = 0
KMC6 230134Z 15005KT 29/09 A2979 RMK A01 T02930090  RH  028%=      5-min Rain = 0
KMC6 230135Z 15005KT 29/09 A2979 RMK A01 T02930091  RH  028%=      5-min Rain = 0
KMC6 230136Z 15005KT 29/09 A2979 RMK A01 T02920092  RH  029%=      5-min Rain = 0
KMC6 230137Z 15005KT 29/09 A2979 RMK A01 T02920094  RH  029%=      5-min Rain = 0
KMC6 230138Z 15005KT 29/10 A2979 RMK A01 T02910095  RH  030%=      5-min Rain = 0
KMC6 230139Z 15005KT 29/10 A2979 RMK A01 T02900095  RH  030%=      5-min Rain = 0
KMC6 230140Z 15005KT 29/10 A2979 RMK A01 T02890095  RH  030%=      5-min Rain = 0
KMC6 230141Z 15005KT 29/10 A2979 RMK A01 T02890095  RH  030%=      5-min Rain = 0
KMC6 230142Z 14004KT 29/10 A2979 RMK A01 T02890096  RH  030%=      5-min Rain = 0
KMC6 230143Z 14004KT 29/10 A2979 RMK A01 T02890096  RH  030%=      5-min Rain = 0
KMC6 230144Z 14005KT 29/10 A2979 RMK A01 T02890096  RH  030%=      5-min Rain = 0
KMC6 230145Z 14005KT 29/10 A2979 RMK A01 T02890095  RH  030%=      5-min Rain = 0
KMC6 230146Z 14005KT 29/10 A2979 RMK A01 T02880095  RH  030%=      5-min Rain = 0
KMC6 230147Z 14005KT 29/09 A2979 RMK A01 T02880094  RH  030%=      5-min Rain = 0
KMC6 230148Z 14005KT 29/09 A2979 RMK A01 T02890094  RH  029%=      5-min Rain = 0
KMC6 230149Z 14005KT 29/09 A2979 RMK A01 T02900092  RH  029%=      5-min Rain = 0
KMC6 230150Z 13005KT 29/09 A2979 RMK A01 T02900093  RH  029%=      5-min Rain = 0
KMC6 230151Z 13005KT 29/10 A2979 RMK A01 T02900095  RH  029%=      5-min Rain = 0
KMC6 230152Z 12005KT 29/10 A2979 RMK A01 T02900095  RH  030%=      5-min Rain = 0
KMC6 230153Z 13004KT 29/09 A2979 RMK A01 T02890093  RH  029%=      5-min Rain = 0
KMC6 230154Z 12004KT 29/09 A2979 RMK A01 T02880093  RH  029%=      5-min Rain = 0
KMC6 230155Z 12004KT 29/09 A2979 RMK A01 T02880090  RH  029%=      5-min Rain = 0
KMC6 230156Z 12003KT 29/09 A2979 RMK A01 T02880092  RH  029%=      5-min Rain = 0
KMC6 230157Z 12004KT 29/09 A2979 RMK A01 T02880093  RH  029%=      5-min Rain = 0
KMC6 230158Z 12004KT 29/09 A2979 RMK A01 T02880092  RH  029%=      5-min Rain = 0
KMC6 230159Z 12004KT 29/09 A2979 RMK A01 T02880092  RH  029%=      5-min Rain = 0
KMC6 230200Z 11003KT 29/09 A2979 RMK A01 T02870091  RH  029%=      5-min Rain = 0
KMC6 230201Z 10004KT 29/09 A2979 RMK A01 T02860089  RH  029%=      5-min Rain = 0
KMC6 230202Z 10003KT 29/09 A2979 RMK A01 T02850090  RH  029%=      5-min Rain = 0
KMC6 230203Z 10003KT 28/09 A2979 RMK A01 T02840089  RH  029%=      5-min Rain = 0
KMC6 230204Z 09003KT 28/09 A2979 RMK A01 T02820089  RH  030%=      5-min Rain = 0
KMC6 230205Z 09003KT 28/09 A2979 RMK A01 T02800088  RH  030%=      5-min Rain = 0
KMC6 230206Z 08003KT 28/09 A2979 RMK A01 T02790088  RH  030%=      5-min Rain = 0
KMC6 230207Z 08003KT 28/09 A2979 RMK A01 T02780088  RH  030%=      5-min Rain = 0
KMC6 230208Z 08003KT 28/09 A2979 RMK A01 T02780088  RH  030%=      5-min Rain = 0
KMC6 230209Z 08003KT 28/09 A2979 RMK A01 T02770089  RH  031%=      5-min Rain = 0
KMC6 230210Z 07003KT 27/09 A2979 RMK A01 T02740090  RH  031%=      5-min Rain = 0
KMC6 230211Z 07003KT 27/08 A2979 RMK A01 T02710082  RH  030%=      5-min Rain = 0
KMC6 230212Z 05003KT 27/08 A2979 RMK A01 T02670078  RH  030%=      5-min Rain = 0
KMC6 230213Z 04003KT 27/07 A2979 RMK A01 T02650073  RH  030%=      5-min Rain = 0
KMC6 230214Z 03004KT 26/08 A2979 RMK A01 T02630077  RH  031%=      5-min Rain = 0
KMC6 230215Z 02004KT 26/08 A2979 RMK A01 T02610079  RH  032%=      5-min Rain = 0
KMC6 230216Z 02004KT 26/08 A2979 RMK A01 T02600081  RH  032%=      5-min Rain = 0
KMC6 230217Z 02004KT 26/08 A2979 RMK A01 T02590081  RH  032%=      5-min Rain = 0
KMC6 230218Z 02004KT 26/08 A2979 RMK A01 T02590080  RH  032%=      5-min Rain = 0
KMC6 230219Z 03003KT 26/08 A2979 RMK A01 T02590080  RH  032%=      5-min Rain = 0
KMC6 230220Z 04003KT 26/08 A2979 RMK A01 T02590081  RH  032%=      5-min Rain = 0
KMC6 230221Z 04003KT 26/08 A2979 RMK A01 T02590084  RH  033%=      5-min Rain = 0
KMC6 230222Z 05003KT 26/09 A2979 RMK A01 T02610085  RH  033%=      5-min Rain = 0
KMC6 230223Z 04003KT 26/09 A2979 RMK A01 T02620085  RH  033%=      5-min Rain = 0
KMC6 230224Z 04003KT 26/09 A2979 RMK A01 T02620085  RH  032%=      5-min Rain = 0
KMC6 230225Z 03003KT 26/09 A2979 RMK A01 T02630085  RH  033%=      5-min Rain = 0
KMC6 230226Z 03003KT 26/09 A2979 RMK A01 T02630085  RH  032%=      5-min Rain = 0
KMC6 230227Z 02004KT 26/08 A2979 RMK A01 T02630084  RH  032%=      5-min Rain = 0
KMC6 230228Z 02004KT 26/08 A2979 RMK A01 T02640083  RH  032%=      5-min Rain = 0
KMC6 230229Z 02004KT 26/08 A2979 RMK A01 T02640081  RH  032%=      5-min Rain = 0
KMC6 230230Z 02004KT 26/08 A2979 RMK A01 T02640079  RH  031%=      5-min Rain = 0
KMC6 230231Z 02004KT 26/08 A2979 RMK A01 T02640076  RH  030%=      5-min Rain = 0
KMC6 230232Z 02004KT 26/07 A2979 RMK A01 T02640071  RH  029%=      5-min Rain = 0
KMC6 230233Z 02004KT 26/07 A2979 RMK A01 T02640069  RH  029%=      5-min Rain = 0
KMC6 230234Z 02004KT 27/07 A2979 RMK A01 T02650069  RH  029%=      5-min Rain = 0
KMC6 230235Z 02004KT 27/07 A2979 RMK A01 T02650067  RH  028%=      5-min Rain = 0
KMC6 230236Z 02004KT 27/07 A298 RMK A01 T02650067  RH  028%=      5-min Rain = 0
KMC6 230237Z 02004KT 26/07 A298 RMK A01 T02640067  RH  029%=      5-min Rain = 0
KMC6 230238Z 03003KT 26/07 A298 RMK A01 T02630067  RH  029%=      5-min Rain = 0
KMC6 230239Z 02004KT 26/07 A298 RMK A01 T02620070  RH  029%=      5-min Rain = 0
KMC6 230240Z 02004KT 26/07 A298 RMK A01 T02610072  RH  030%=      5-min Rain = 0
KMC6 230241Z 02004KT 26/07 A298 RMK A01 T02600073  RH  030%=      5-min Rain = 0
KMC6 230242Z 02004KT 26/07 A298 RMK A01 T02590073  RH  031%=      5-min Rain = 0
KMC6 230243Z 02004KT 26/08 A298 RMK A01 T02580076  RH  031%=      5-min Rain = 0
KMC6 230244Z 01004KT 26/08 A298 RMK A01 T02570080  RH  032%=      5-min Rain = 0
KMC6 230245Z 01004KT 26/08 A298 RMK A01 T02570082  RH  033%=      5-min Rain = 0
KMC6 230246Z 01004KT 26/08 A298 RMK A01 T02570082  RH  033%=      5-min Rain = 0
KMC6 230247Z 02004KT 26/08 A298 RMK A01 T02560084  RH  033%=      5-min Rain = 0
KMC6 230248Z 02004KT 26/08 A298 RMK A01 T02550084  RH  034%=      5-min Rain = 0
KMC6 230249Z 02005KT 25/08 A298 RMK A01 T02540083  RH  034%=      5-min Rain = 0
KMC6 230250Z 02005KT 25/08 A298 RMK A01 T02540081  RH  033%=      5-min Rain = 0
KMC6 230251Z 02006KT 25/08 A298 RMK A01 T02530080  RH  033%=      5-min Rain = 0
KMC6 230252Z 02006KT 25/08 A298 RMK A01 T02520078  RH  033%=      5-min Rain = 0
KMC6 230253Z 02006KT 25/08 A298 RMK A01 T02510077  RH  033%=      5-min Rain = 0
KMC6 230254Z 02006KT 25/08 A298 RMK A01 T02510075  RH  033%=      5-min Rain = 0
KMC6 230255Z 03006KT 25/07 A298 RMK A01 T02510071  RH  032%=      5-min Rain = 0
KMC6 230256Z 03007KT 25/07 A298 RMK A01 T02520073  RH  032%=      5-min Rain = 0
KMC6 230257Z 03008KT 25/07 A298 RMK A01 T02520072  RH  032%=      5-min Rain = 0
KMC6 230258Z 03008KT 25/07 A298 RMK A01 T02530072  RH  031%=      5-min Rain = 0
KMC6 230259Z 03008KT 25/07 A298 RMK A01 T02530073  RH  032%=      5-min Rain = 0
KMC6 230300Z 03008KT 25/08 A298 RMK A01 T02530075  RH  032%=      5-min Rain = 0
KMC6 230301Z 04007KT 25/08 A2981 RMK A01 T02530078  RH  033%=      5-min Rain = 0
KMC6 230302Z 04007KT 25/08 A2981 RMK A01 T02510079  RH  033%=      5-min Rain = 0
KMC6 230303Z 05007KT 25/08 A2981 RMK A01 T02470080  RH  034%=      5-min Rain = 0
KMC6 230304Z 05006KT 25/08 A2981 RMK A01 T02450080  RH  035%=      5-min Rain = 0
KMC6 230305Z 06006KT 24/08 A2981 RMK A01 T02440080  RH  035%=      5-min Rain = 0
KMC6 230306Z 06005KT 24/08 A2981 RMK A01 T02430081  RH  035%=      5-min Rain = 0
KMC6 230307Z 05006KT 24/08 A2981 RMK A01 T02430082  RH  036%=      5-min Rain = 0
KMC6 230308Z 04007KT 24/08 A2981 RMK A01 T02430084  RH  036%=      5-min Rain = 0
KMC6 230309Z 04007KT 24/09 A2981 RMK A01 T02440086  RH  036%=      5-min Rain = 0
KMC6 230310Z 04006KT 25/09 A2981 RMK A01 T02450086  RH  036%=      5-min Rain = 0
KMC6 230311Z 04007KT 25/09 A2981 RMK A01 T02450088  RH  037%=      5-min Rain = 0
KMC6 230312Z 04007KT 24/09 A2981 RMK A01 T02440090  RH  038%=      5-min Rain = 0
KMC6 230313Z 05008KT 24/09 A2981 RMK A01 T02420091  RH  038%=      5-min Rain = 0
KMC6 230314Z 04008KT 24/09 A2981 RMK A01 T02400093  RH  039%=      5-min Rain = 0
KMC6 230315Z 04009KT 24/10 A2982 RMK A01 T02390095  RH  040%=      5-min Rain = 0
KMC6 230316Z 04010KT 24/10 A2982 RMK A01 T02390098  RH  041%=      5-min Rain = 0
KMC6 230317Z 04010KT 24/10 A2982 RMK A01 T02400099  RH  041%=      5-min Rain = 0
KMC6 230318Z 03010KT 24/10 A2982 RMK A01 T02420097  RH  040%=      5-min Rain = 0
KMC6 230319Z 03010KT 24/09 A2982 RMK A01 T02440093  RH  038%=      5-min Rain = 0
KMC6 230320Z 04011KT 25/09 A2982 RMK A01 T02470087  RH  036%=      5-min Rain = 0
KMC6 230321Z 04010KT 25/08 A2982 RMK A01 T02490082  RH  034%=      5-min Rain = 0
KMC6 230322Z 04010KT 25/08 A2982 RMK A01 T02500081  RH  034%=      5-min Rain = 0
KMC6 230323Z 04010KT 25/08 A2982 RMK A01 T02510081  RH  034%=      5-min Rain = 0
KMC6 230324Z 04010KT 25/08 A2982 RMK A01 T02510082  RH  034%=      5-min Rain = 0
KMC6 230325Z 04009KT 25/08 A2982 RMK A01 T02500081  RH  034%=      5-min Rain = 0
KMC6 230326Z 03010KT 25/08 A2982 RMK A01 T02510080  RH  034%=      5-min Rain = 0
KMC6 230327Z 03010KT 25/08 A2982 RMK A01 T02510081  RH  034%=      5-min Rain = 0
KMC6 230328Z 04011KT 25/08 A2982 RMK A01 T02520081  RH  034%=      5-min Rain = 0
KMC6 230329Z 04011KT 25/08 A2982 RMK A01 T02530083  RH  034%=      5-min Rain = 0
KMC6 230330Z 04010KT 25/08 A2982 RMK A01 T02540083  RH  034%=      5-min Rain = 0
KMC6 230331Z 04009KT 26/08 A2982 RMK A01 T02550083  RH  033%=      5-min Rain = 0
KMC6 230332Z 04009KT 26/08 A2982 RMK A01 T02550082  RH  033%=      5-min Rain = 0
KMC6 230333Z 04011KT 25/08 A2982 RMK A01 T02540084  RH  034%=      5-min Rain = 0
KMC6 230334Z 04011KT 25/08 A2982 RMK A01 T02530084  RH  034%=      5-min Rain = 0
KMC6 230335Z 04009KT 25/08 A2982 RMK A01 T02530084  RH  034%=      5-min Rain = 0
KMC6 230336Z 04008KT 25/09 A2982 RMK A01 T02530085  RH  034%=      5-min Rain = 0
KMC6 230337Z 05008KT 25/08 A2982 RMK A01 T02520084  RH  034%=      5-min Rain = 0
KMC6 230338Z 05007KT 25/08 A2982 RMK A01 T02510084  RH  035%=      5-min Rain = 0
KMC6 230339Z 05008KT 25/09 A2982 RMK A01 T02500085  RH  035%=      5-min Rain = 0
KMC6 230340Z 05008KT 25/09 A2982 RMK A01 T02490085  RH  035%=      5-min Rain = 0
KMC6 230341Z 05008KT 25/09 A2982 RMK A01 T02480086  RH  036%=      5-min Rain = 0
KMC6 230342Z 06007KT 25/09 A2982 RMK A01 T02470085  RH  036%=      5-min Rain = 0
KMC6 230343Z 06007KT 25/09 A2982 RMK A01 T02470085  RH  036%=      5-min Rain = 0
KMC6 230344Z 05007KT 25/09 A2982 RMK A01 T02460086  RH  036%=      5-min Rain = 0
KMC6 230345Z 06007KT 25/09 A2982 RMK A01 T02450086  RH  036%=      5-min Rain = 0
KMC6 230346Z 06008KT 24/09 A2982 RMK A01 T02440087  RH  037%=      5-min Rain = 0
KMC6 230347Z 06007KT 24/09 A2982 RMK A01 T02430087  RH  037%=      5-min Rain = 0
KMC6 230348Z 06007KT 24/09 A2982 RMK A01 T02430088  RH  037%=      5-min Rain = 0
KMC6 230349Z 06007KT 24/09 A2982 RMK A01 T02420089  RH  038%=      5-min Rain = 0
KMC6 230350Z 06007KT 24/09 A2982 RMK A01 T02410089  RH  038%=      5-min Rain = 0
KMC6 230351Z 06007KT 24/09 A2982 RMK A01 T02400090  RH  038%=      5-min Rain = 0
KMC6 230352Z 07007KT 24/09 A2982 RMK A01 T02390090  RH  039%=      5-min Rain = 0
KMC6 230353Z 07007KT 24/09 A2982 RMK A01 T02390090  RH  039%=      5-min Rain = 0
KMC6 230354Z 07006KT 24/09 A2982 RMK A01 T02400090  RH  038%=      5-min Rain = 0
KMC6 230355Z 07007KT 24/09 A2982 RMK A01 T02400090  RH  039%=      5-min Rain = 0
KMC6 230356Z 07007KT 24/09 A2982 RMK A01 T02400091  RH  039%=      5-min Rain = 0
KMC6 230357Z 07007KT 24/09 A2982 RMK A01 T02390091  RH  039%=      5-min Rain = 0
KMC6 230358Z 07008KT 24/09 A2982 RMK A01 T02380091  RH  039%=      5-min Rain = 0
KMC6 230359Z 07008KT 24/09 A2982 RMK A01 T02370091  RH  039%=      5-min Rain = 0
KMC6 230400Z 07008KT 24/09 A2982 RMK A01 T02370091  RH  040%=      5-min Rain = 0
KMC6 230401Z 07007KT 24/09 A2982 RMK A01 T02360091  RH  040%=      5-min Rain = 0
KMC6 230402Z 07008KT 24/09 A2982 RMK A01 T02350091  RH  040%=      5-min Rain = 0
KMC6 230403Z 07008KT 23/09 A2982 RMK A01 T02340091  RH  040%=      5-min Rain = 0
KMC6 230404Z 07008KT 23/09 A2982 RMK A01 T02340091  RH  040%=      5-min Rain = 0
KMC6 230405Z 07008KT 23/09 A2982 RMK A01 T02340091  RH  040%=      5-min Rain = 0
KMC6 230406Z 07006KT 23/09 A2982 RMK A01 T02340092  RH  040%=      5-min Rain = 0
KMC6 230407Z 08005KT 23/09 A2982 RMK A01 T02330092  RH  040%=      5-min Rain = 0
KMC6 230408Z 09005KT 23/09 A2982 RMK A01 T02320091  RH  041%=      5-min Rain = 0
KMC6 230409Z 08005KT 23/09 A2982 RMK A01 T02310091  RH  041%=      5-min Rain = 0
KMC6 230410Z 07005KT 23/09 A2982 RMK A01 T02300091  RH  041%=      5-min Rain = 0
KMC6 230411Z 07005KT 23/09 A2982 RMK A01 T02300091  RH  041%=      5-min Rain = 0
KMC6 230412Z 06006KT 23/09 A2982 RMK A01 T02290091  RH  041%=      5-min Rain = 0
KMC6 230413Z 06006KT 23/09 A2981 RMK A01 T02290091  RH  042%=      5-min Rain = 0
KMC6 230414Z 07006KT 23/09 A2981 RMK A01 T02280092  RH  042%=      5-min Rain = 0
KMC6 230415Z 06007KT 23/09 A2981 RMK A01 T02270092  RH  042%=      5-min Rain = 0
KMC6 230416Z 06007KT 23/09 A2981 RMK A01 T02260092  RH  043%=      5-min Rain = 0
KMC6 230417Z 06007KT 23/09 A2981 RMK A01 T02250093  RH  043%=      5-min Rain = 0
KMC6 230418Z 06008KT 22/09 A2981 RMK A01 T02240093  RH  043%=      5-min Rain = 0
KMC6 230419Z 06007KT 22/09 A2981 RMK A01 T02240093  RH  043%=      5-min Rain = 0
KMC6 230420Z 06008KT 22/09 A2981 RMK A01 T02230093  RH  044%=      5-min Rain = 0
KMC6 230421Z 06009KT 22/09 A2981 RMK A01 T02220094  RH  044%=      5-min Rain = 0
KMC6 230422Z 05008KT 22/09 A2981 RMK A01 T02220094  RH  044%=      5-min Rain = 0
KMC6 230423Z 05007KT 22/09 A2981 RMK A01 T02220093  RH  044%=      5-min Rain = 0
KMC6 230424Z 05007KT 22/09 A2981 RMK A01 T02230093  RH  043%=      5-min Rain = 0
KMC6 230425Z 05006KT 22/09 A2981 RMK A01 T02240094  RH  043%=      5-min Rain = 0
KMC6 230426Z 05007KT 22/09 A2981 RMK A01 T02240094  RH  044%=      5-min Rain = 0
KMC6 230427Z 06007KT 22/09 A2981 RMK A01 T02230094  RH  044%=      5-min Rain = 0
KMC6 230428Z 06006KT 22/09 A2981 RMK A01 T02220094  RH  044%=      5-min Rain = 0
KMC6 230429Z 05007KT 22/09 A2981 RMK A01 T02220094  RH  044%=      5-min Rain = 0
KMC6 230430Z 05008KT 22/09 A2981 RMK A01 T02210094  RH  044%=      5-min Rain = 0
KMC6 230431Z 05007KT 22/09 A2981 RMK A01 T02210094  RH  044%=      5-min Rain = 0
KMC6 230432Z 05007KT 22/10 A2981 RMK A01 T02210095  RH  045%=      5-min Rain = 0
KMC6 230433Z 05007KT 22/10 A2981 RMK A01 T02210095  RH  045%=      5-min Rain = 0
KMC6 230434Z 05007KT 22/10 A2981 RMK A01 T02210095  RH  045%=      5-min Rain = 0
KMC6 230435Z 05007KT 22/10 A298 RMK A01 T02210095  RH  045%=      5-min Rain = 0
KMC6 230436Z 05007KT 22/10 A298 RMK A01 T02210095  RH  045%=      5-min Rain = 0
KMC6 230437Z 05007KT 22/10 A298 RMK A01 T02210095  RH  044%=      5-min Rain = 0
KMC6 230438Z 05007KT 22/10 A298 RMK A01 T02220095  RH  044%=      5-min Rain = 0
KMC6 230439Z 05007KT 22/10 A298 RMK A01 T02210095  RH  045%=      5-min Rain = 0
KMC6 230440Z 05008KT 22/10 A298 RMK A01 T02200095  RH  045%=      5-min Rain = 0
KMC6 230441Z 05008KT 22/10 A298 RMK A01 T02190096  RH  045%=      5-min Rain = 0
KMC6 230442Z 05008KT 22/10 A298 RMK A01 T02180097  RH  046%=      5-min Rain = 0
KMC6 230443Z 05008KT 22/10 A298 RMK A01 T02180098  RH  046%=      5-min Rain = 0
KMC6 230444Z 05008KT 22/10 A298 RMK A01 T02170099  RH  047%=      5-min Rain = 0
KMC6 230445Z 04008KT 22/10 A298 RMK A01 T02170100  RH  047%=      5-min Rain = 0
KMC6 230446Z 04008KT 22/10 A298 RMK A01 T02170100  RH  047%=      5-min Rain = 0
KMC6 230447Z 05007KT 22/10 A298 RMK A01 T02180101  RH  047%=      5-min Rain = 0
KMC6 230448Z 05007KT 22/10 A298 RMK A01 T02180101  RH  048%=      5-min Rain = 0
KMC6 230449Z 05007KT 22/10 A298 RMK A01 T02170101  RH  048%=      5-min Rain = 0
KMC6 230450Z 05007KT 22/10 A298 RMK A01 T02160101  RH  048%=      5-min Rain = 0
KMC6 230451Z 05007KT 22/10 A298 RMK A01 T02150101  RH  048%=      5-min Rain = 0
KMC6 230452Z 05007KT 21/10 A298 RMK A01 T02140101  RH  049%=      5-min Rain = 0
KMC6 230453Z 05007KT 21/10 A298 RMK A01 T02130101  RH  049%=      5-min Rain = 0
KMC6 230454Z 05007KT 21/10 A298 RMK A01 T02120101  RH  049%=      5-min Rain = 0
KMC6 230455Z 06007KT 21/10 A298 RMK A01 T02120101  RH  049%=      5-min Rain = 0
KMC6 230456Z 06007KT 21/10 A298 RMK A01 T02110100  RH  049%=      5-min Rain = 0
KMC6 230457Z 06007KT 21/10 A298 RMK A01 T02120100  RH  049%=      5-min Rain = 0
KMC6 230458Z 07007KT 21/10 A298 RMK A01 T02120100  RH  048%=      5-min Rain = 0
KMC6 230459Z 06007KT 21/10 A298 RMK A01 T02130099  RH  048%=      5-min Rain = 0

Page generated in 0.1361 seconds.